<?xml version="1.0" encoding="UTF-8" standalone="no" ?>
<gpx xmlns="http://www.topografix.com/GPX/1/1" xmlns:xsi="http://www.w3.org/2001/XMLSchema-instance" xsi:schemaLocation="http://www.topografix.com/GPX/1/1 http://www.topografix.com/GPX/1/1/gpx.xsd" version="1.1" creator="VisuGPX - https://www.visugpx.com">
  <metadata>
    <name>Crest vallée de la Lauzière</name>
  </metadata>
  <trk>
    <name><![CDATA[2022-03-02 15:08:48]]></name>
    <trkseg>
      <trkpt lat="44.72798" lon="5.0372">
        <ele>213.55</ele>
        <time>2022-03-02T08:31:19Z</time>
      </trkpt>
      <trkpt lat="44.72799" lon="5.03719">
        <ele>214.99</ele>
        <time>2022-03-02T08:31:32Z</time>
      </trkpt>
      <trkpt lat="44.72801" lon="5.03717">
        <ele>214.03</ele>
        <time>2022-03-02T08:31:50Z</time>
      </trkpt>
      <trkpt lat="44.72806" lon="5.03717">
        <ele>214.03</ele>
        <time>2022-03-02T08:32:01Z</time>
      </trkpt>
      <trkpt lat="44.72806" lon="5.03717">
        <ele>210.67</ele>
        <time>2022-03-02T08:32:07Z</time>
      </trkpt>
      <trkpt lat="44.72806" lon="5.03717">
        <ele>209.22</ele>
        <time>2022-03-02T08:32:10Z</time>
      </trkpt>
      <trkpt lat="44.72806" lon="5.03717">
        <ele>212.59</ele>
        <time>2022-03-02T08:32:13Z</time>
      </trkpt>
      <trkpt lat="44.72806" lon="5.03717">
        <ele>215.95</ele>
        <time>2022-03-02T08:32:15Z</time>
      </trkpt>
      <trkpt lat="44.72808" lon="5.03718">
        <ele>215.47</ele>
        <time>2022-03-02T08:32:31Z</time>
      </trkpt>
      <trkpt lat="44.72811" lon="5.03718">
        <ele>214.99</ele>
        <time>2022-03-02T08:32:45Z</time>
      </trkpt>
      <trkpt lat="44.72814" lon="5.0372">
        <ele>215.95</ele>
        <time>2022-03-02T08:33:01Z</time>
      </trkpt>
      <trkpt lat="44.72815" lon="5.0372">
        <ele>216.43</ele>
        <time>2022-03-02T08:33:20Z</time>
      </trkpt>
      <trkpt lat="44.72816" lon="5.0372">
        <ele>216.43</ele>
        <time>2022-03-02T08:33:47Z</time>
      </trkpt>
      <trkpt lat="44.72817" lon="5.0372">
        <ele>215.95</ele>
        <time>2022-03-02T08:34:33Z</time>
      </trkpt>
      <trkpt lat="44.72817" lon="5.0372">
        <ele>215.95</ele>
        <time>2022-03-02T08:35:22Z</time>
      </trkpt>
      <trkpt lat="44.72821" lon="5.03722">
        <ele>215.95</ele>
        <time>2022-03-02T08:35:44Z</time>
      </trkpt>
      <trkpt lat="44.72833" lon="5.03727">
        <ele>215.95</ele>
        <time>2022-03-02T08:36:07Z</time>
      </trkpt>
      <trkpt lat="44.72841" lon="5.03731">
        <ele>216.43</ele>
        <time>2022-03-02T08:36:18Z</time>
      </trkpt>
      <trkpt lat="44.72842" lon="5.03732">
        <ele>216.91</ele>
        <time>2022-03-02T08:36:19Z</time>
      </trkpt>
      <trkpt lat="44.72848" lon="5.03747">
        <ele>218.84</ele>
        <time>2022-03-02T08:36:38Z</time>
      </trkpt>
      <trkpt lat="44.72845" lon="5.03763">
        <ele>219.32</ele>
        <time>2022-03-02T08:36:57Z</time>
      </trkpt>
      <trkpt lat="44.72842" lon="5.03781">
        <ele>218.84</ele>
        <time>2022-03-02T08:37:11Z</time>
      </trkpt>
      <trkpt lat="44.72839" lon="5.03797">
        <ele>218.36</ele>
        <time>2022-03-02T08:37:25Z</time>
      </trkpt>
      <trkpt lat="44.72838" lon="5.03798">
        <ele>218.36</ele>
        <time>2022-03-02T08:37:26Z</time>
      </trkpt>
      <trkpt lat="44.72838" lon="5.03801">
        <ele>218.36</ele>
        <time>2022-03-02T08:37:28Z</time>
      </trkpt>
      <trkpt lat="44.72838" lon="5.03803">
        <ele>218.36</ele>
        <time>2022-03-02T08:37:29Z</time>
      </trkpt>
      <trkpt lat="44.72834" lon="5.03823">
        <ele>218.36</ele>
        <time>2022-03-02T08:37:46Z</time>
      </trkpt>
      <trkpt lat="44.72834" lon="5.03827">
        <ele>218.36</ele>
        <time>2022-03-02T08:37:49Z</time>
      </trkpt>
      <trkpt lat="44.72831" lon="5.03855">
        <ele>217.4</ele>
        <time>2022-03-02T08:38:08Z</time>
      </trkpt>
      <trkpt lat="44.72833" lon="5.03896">
        <ele>216.43</ele>
        <time>2022-03-02T08:38:35Z</time>
      </trkpt>
      <trkpt lat="44.72835" lon="5.0391">
        <ele>215.95</ele>
        <time>2022-03-02T08:38:46Z</time>
      </trkpt>
      <trkpt lat="44.72836" lon="5.03915">
        <ele>215.95</ele>
        <time>2022-03-02T08:38:49Z</time>
      </trkpt>
      <trkpt lat="44.72836" lon="5.03916">
        <ele>215.95</ele>
        <time>2022-03-02T08:38:50Z</time>
      </trkpt>
      <trkpt lat="44.72836" lon="5.03918">
        <ele>215.95</ele>
        <time>2022-03-02T08:38:51Z</time>
      </trkpt>
      <trkpt lat="44.72837" lon="5.03919">
        <ele>215.95</ele>
        <time>2022-03-02T08:38:52Z</time>
      </trkpt>
      <trkpt lat="44.72837" lon="5.03921">
        <ele>215.47</ele>
        <time>2022-03-02T08:38:53Z</time>
      </trkpt>
      <trkpt lat="44.72846" lon="5.03948">
        <ele>214.99</ele>
        <time>2022-03-02T08:39:11Z</time>
      </trkpt>
      <trkpt lat="44.72861" lon="5.03978">
        <ele>213.55</ele>
        <time>2022-03-02T08:39:34Z</time>
      </trkpt>
      <trkpt lat="44.72875" lon="5.03999">
        <ele>212.59</ele>
        <time>2022-03-02T08:39:51Z</time>
      </trkpt>
      <trkpt lat="44.72888" lon="5.04017">
        <ele>211.63</ele>
        <time>2022-03-02T08:40:08Z</time>
      </trkpt>
      <trkpt lat="44.72905" lon="5.04043">
        <ele>211.15</ele>
        <time>2022-03-02T08:40:29Z</time>
      </trkpt>
      <trkpt lat="44.72921" lon="5.04063">
        <ele>210.19</ele>
        <time>2022-03-02T08:40:47Z</time>
      </trkpt>
      <trkpt lat="44.72944" lon="5.04077">
        <ele>209.7</ele>
        <time>2022-03-02T08:41:07Z</time>
      </trkpt>
      <trkpt lat="44.72965" lon="5.04083">
        <ele>209.7</ele>
        <time>2022-03-02T08:41:25Z</time>
      </trkpt>
      <trkpt lat="44.72981" lon="5.04088">
        <ele>209.7</ele>
        <time>2022-03-02T08:41:39Z</time>
      </trkpt>
      <trkpt lat="44.73001" lon="5.04092">
        <ele>209.22</ele>
        <time>2022-03-02T08:41:59Z</time>
      </trkpt>
      <trkpt lat="44.73021" lon="5.04101">
        <ele>209.7</ele>
        <time>2022-03-02T08:42:18Z</time>
      </trkpt>
      <trkpt lat="44.73023" lon="5.04103">
        <ele>209.7</ele>
        <time>2022-03-02T08:42:21Z</time>
      </trkpt>
      <trkpt lat="44.73025" lon="5.04105">
        <ele>209.7</ele>
        <time>2022-03-02T08:42:23Z</time>
      </trkpt>
      <trkpt lat="44.73026" lon="5.04105">
        <ele>209.7</ele>
        <time>2022-03-02T08:42:24Z</time>
      </trkpt>
      <trkpt lat="44.73043" lon="5.04113">
        <ele>210.19</ele>
        <time>2022-03-02T08:42:41Z</time>
      </trkpt>
      <trkpt lat="44.73059" lon="5.04122">
        <ele>211.15</ele>
        <time>2022-03-02T08:42:59Z</time>
      </trkpt>
      <trkpt lat="44.73072" lon="5.0413">
        <ele>211.63</ele>
        <time>2022-03-02T08:43:16Z</time>
      </trkpt>
      <trkpt lat="44.73098" lon="5.04147">
        <ele>212.59</ele>
        <time>2022-03-02T08:43:38Z</time>
      </trkpt>
      <trkpt lat="44.73121" lon="5.04164">
        <ele>214.03</ele>
        <time>2022-03-02T08:44:03Z</time>
      </trkpt>
      <trkpt lat="44.73143" lon="5.04181">
        <ele>215.95</ele>
        <time>2022-03-02T08:44:27Z</time>
      </trkpt>
      <trkpt lat="44.73162" lon="5.04196">
        <ele>217.4</ele>
        <time>2022-03-02T08:44:50Z</time>
      </trkpt>
      <trkpt lat="44.73182" lon="5.04213">
        <ele>219.8</ele>
        <time>2022-03-02T08:45:14Z</time>
      </trkpt>
      <trkpt lat="44.73201" lon="5.04231">
        <ele>221.72</ele>
        <time>2022-03-02T08:45:38Z</time>
      </trkpt>
      <trkpt lat="44.73219" lon="5.04253">
        <ele>223.64</ele>
        <time>2022-03-02T08:46:04Z</time>
      </trkpt>
      <trkpt lat="44.7322" lon="5.04241">
        <ele>224.61</ele>
        <time>2022-03-02T08:46:20Z</time>
      </trkpt>
      <trkpt lat="44.73206" lon="5.04221">
        <ele>226.05</ele>
        <time>2022-03-02T08:46:42Z</time>
      </trkpt>
      <trkpt lat="44.73205" lon="5.0422">
        <ele>226.05</ele>
        <time>2022-03-02T08:46:43Z</time>
      </trkpt>
      <trkpt lat="44.73192" lon="5.04202">
        <ele>227.49</ele>
        <time>2022-03-02T08:47:03Z</time>
      </trkpt>
      <trkpt lat="44.73195" lon="5.04186">
        <ele>229.89</ele>
        <time>2022-03-02T08:47:23Z</time>
      </trkpt>
      <trkpt lat="44.7321" lon="5.04196">
        <ele>232.78</ele>
        <time>2022-03-02T08:47:44Z</time>
      </trkpt>
      <trkpt lat="44.73226" lon="5.04204">
        <ele>235.66</ele>
        <time>2022-03-02T08:48:06Z</time>
      </trkpt>
      <trkpt lat="44.73232" lon="5.04206">
        <ele>237.58</ele>
        <time>2022-03-02T08:48:24Z</time>
      </trkpt>
      <trkpt lat="44.73236" lon="5.04212">
        <ele>238.54</ele>
        <time>2022-03-02T08:48:39Z</time>
      </trkpt>
      <trkpt lat="44.73244" lon="5.04215">
        <ele>240.47</ele>
        <time>2022-03-02T08:48:57Z</time>
      </trkpt>
      <trkpt lat="44.73254" lon="5.0422">
        <ele>242.39</ele>
        <time>2022-03-02T08:49:14Z</time>
      </trkpt>
      <trkpt lat="44.73263" lon="5.04226">
        <ele>245.75</ele>
        <time>2022-03-02T08:49:33Z</time>
      </trkpt>
      <trkpt lat="44.73271" lon="5.04231">
        <ele>247.68</ele>
        <time>2022-03-02T08:49:50Z</time>
      </trkpt>
      <trkpt lat="44.73282" lon="5.04237">
        <ele>250.08</ele>
        <time>2022-03-02T08:50:08Z</time>
      </trkpt>
      <trkpt lat="44.73291" lon="5.04242">
        <ele>252.96</ele>
        <time>2022-03-02T08:50:26Z</time>
      </trkpt>
      <trkpt lat="44.73301" lon="5.04248">
        <ele>254.89</ele>
        <time>2022-03-02T08:50:44Z</time>
      </trkpt>
      <trkpt lat="44.7331" lon="5.04251">
        <ele>257.29</ele>
        <time>2022-03-02T08:51:01Z</time>
      </trkpt>
      <trkpt lat="44.73319" lon="5.04255">
        <ele>259.69</ele>
        <time>2022-03-02T08:51:20Z</time>
      </trkpt>
      <trkpt lat="44.7333" lon="5.04262">
        <ele>262.58</ele>
        <time>2022-03-02T08:51:40Z</time>
      </trkpt>
      <trkpt lat="44.73339" lon="5.04269">
        <ele>264.98</ele>
        <time>2022-03-02T08:52:00Z</time>
      </trkpt>
      <trkpt lat="44.73346" lon="5.04274">
        <ele>266.42</ele>
        <time>2022-03-02T08:52:18Z</time>
      </trkpt>
      <trkpt lat="44.73357" lon="5.04283">
        <ele>269.31</ele>
        <time>2022-03-02T08:52:36Z</time>
      </trkpt>
      <trkpt lat="44.73365" lon="5.04289">
        <ele>270.75</ele>
        <time>2022-03-02T08:52:53Z</time>
      </trkpt>
      <trkpt lat="44.73381" lon="5.04295">
        <ele>273.15</ele>
        <time>2022-03-02T08:53:13Z</time>
      </trkpt>
      <trkpt lat="44.73391" lon="5.04306">
        <ele>276.04</ele>
        <time>2022-03-02T08:53:35Z</time>
      </trkpt>
      <trkpt lat="44.73397" lon="5.04315">
        <ele>277.48</ele>
        <time>2022-03-02T08:53:51Z</time>
      </trkpt>
      <trkpt lat="44.73405" lon="5.04322">
        <ele>279.88</ele>
        <time>2022-03-02T08:54:08Z</time>
      </trkpt>
      <trkpt lat="44.73415" lon="5.04331">
        <ele>282.77</ele>
        <time>2022-03-02T08:54:27Z</time>
      </trkpt>
      <trkpt lat="44.73424" lon="5.04338">
        <ele>285.17</ele>
        <time>2022-03-02T08:54:45Z</time>
      </trkpt>
      <trkpt lat="44.73437" lon="5.04354">
        <ele>288.05</ele>
        <time>2022-03-02T08:55:09Z</time>
      </trkpt>
      <trkpt lat="44.73445" lon="5.04363">
        <ele>289.97</ele>
        <time>2022-03-02T08:55:27Z</time>
      </trkpt>
      <trkpt lat="44.73455" lon="5.04372">
        <ele>292.38</ele>
        <time>2022-03-02T08:55:45Z</time>
      </trkpt>
      <trkpt lat="44.73463" lon="5.04381">
        <ele>294.78</ele>
        <time>2022-03-02T08:56:02Z</time>
      </trkpt>
      <trkpt lat="44.73468" lon="5.0439">
        <ele>296.22</ele>
        <time>2022-03-02T08:56:19Z</time>
      </trkpt>
      <trkpt lat="44.73473" lon="5.04399">
        <ele>298.15</ele>
        <time>2022-03-02T08:56:34Z</time>
      </trkpt>
      <trkpt lat="44.73478" lon="5.04409">
        <ele>300.55</ele>
        <time>2022-03-02T08:56:50Z</time>
      </trkpt>
      <trkpt lat="44.73483" lon="5.04419">
        <ele>302.95</ele>
        <time>2022-03-02T08:57:07Z</time>
      </trkpt>
      <trkpt lat="44.73488" lon="5.04429">
        <ele>304.88</ele>
        <time>2022-03-02T08:57:23Z</time>
      </trkpt>
      <trkpt lat="44.73497" lon="5.04443">
        <ele>307.76</ele>
        <time>2022-03-02T08:57:45Z</time>
      </trkpt>
      <trkpt lat="44.73505" lon="5.04454">
        <ele>310.16</ele>
        <time>2022-03-02T08:58:04Z</time>
      </trkpt>
      <trkpt lat="44.73514" lon="5.04463">
        <ele>312.57</ele>
        <time>2022-03-02T08:58:24Z</time>
      </trkpt>
      <trkpt lat="44.73522" lon="5.04476">
        <ele>314.97</ele>
        <time>2022-03-02T08:58:42Z</time>
      </trkpt>
      <trkpt lat="44.73532" lon="5.04485">
        <ele>316.89</ele>
        <time>2022-03-02T08:59:00Z</time>
      </trkpt>
      <trkpt lat="44.73544" lon="5.04496">
        <ele>318.81</ele>
        <time>2022-03-02T08:59:18Z</time>
      </trkpt>
      <trkpt lat="44.73546" lon="5.045">
        <ele>319.3</ele>
        <time>2022-03-02T08:59:23Z</time>
      </trkpt>
      <trkpt lat="44.73555" lon="5.0451">
        <ele>320.74</ele>
        <time>2022-03-02T08:59:39Z</time>
      </trkpt>
      <trkpt lat="44.73565" lon="5.04523">
        <ele>322.18</ele>
        <time>2022-03-02T08:59:57Z</time>
      </trkpt>
      <trkpt lat="44.73575" lon="5.0454">
        <ele>323.62</ele>
        <time>2022-03-02T09:00:16Z</time>
      </trkpt>
      <trkpt lat="44.73584" lon="5.04549">
        <ele>324.58</ele>
        <time>2022-03-02T09:00:32Z</time>
      </trkpt>
      <trkpt lat="44.73597" lon="5.0456">
        <ele>326.02</ele>
        <time>2022-03-02T09:00:50Z</time>
      </trkpt>
      <trkpt lat="44.7361" lon="5.04574">
        <ele>326.99</ele>
        <time>2022-03-02T09:01:10Z</time>
      </trkpt>
      <trkpt lat="44.73621" lon="5.04587">
        <ele>326.99</ele>
        <time>2022-03-02T09:01:27Z</time>
      </trkpt>
      <trkpt lat="44.73633" lon="5.04598">
        <ele>326.99</ele>
        <time>2022-03-02T09:01:44Z</time>
      </trkpt>
      <trkpt lat="44.73647" lon="5.04611">
        <ele>326.99</ele>
        <time>2022-03-02T09:02:03Z</time>
      </trkpt>
      <trkpt lat="44.73651" lon="5.04618">
        <ele>327.47</ele>
        <time>2022-03-02T09:02:23Z</time>
      </trkpt>
      <trkpt lat="44.73657" lon="5.04624">
        <ele>327.95</ele>
        <time>2022-03-02T09:02:40Z</time>
      </trkpt>
      <trkpt lat="44.73658" lon="5.04624">
        <ele>328.43</ele>
        <time>2022-03-02T09:02:59Z</time>
      </trkpt>
      <trkpt lat="44.73658" lon="5.04624">
        <ele>328.43</ele>
        <time>2022-03-02T09:03:40Z</time>
      </trkpt>
      <trkpt lat="44.73659" lon="5.04625">
        <ele>327.47</ele>
        <time>2022-03-02T09:04:05Z</time>
      </trkpt>
      <trkpt lat="44.73659" lon="5.04625">
        <ele>329.39</ele>
        <time>2022-03-02T09:04:21Z</time>
      </trkpt>
      <trkpt lat="44.73659" lon="5.04625">
        <ele>327.95</ele>
        <time>2022-03-02T09:04:46Z</time>
      </trkpt>
      <trkpt lat="44.73659" lon="5.04625">
        <ele>330.35</ele>
        <time>2022-03-02T09:05:14Z</time>
      </trkpt>
      <trkpt lat="44.73659" lon="5.04625">
        <ele>327.47</ele>
        <time>2022-03-02T09:05:34Z</time>
      </trkpt>
      <trkpt lat="44.73659" lon="5.04625">
        <ele>330.35</ele>
        <time>2022-03-02T09:05:39Z</time>
      </trkpt>
      <trkpt lat="44.73659" lon="5.04625">
        <ele>330.83</ele>
        <time>2022-03-02T09:05:40Z</time>
      </trkpt>
      <trkpt lat="44.73659" lon="5.04625">
        <ele>329.39</ele>
        <time>2022-03-02T09:06:17Z</time>
      </trkpt>
      <trkpt lat="44.73659" lon="5.04625">
        <ele>326.02</ele>
        <time>2022-03-02T09:06:20Z</time>
      </trkpt>
      <trkpt lat="44.73659" lon="5.04625">
        <ele>324.58</ele>
        <time>2022-03-02T09:06:23Z</time>
      </trkpt>
      <trkpt lat="44.73659" lon="5.04625">
        <ele>327.47</ele>
        <time>2022-03-02T09:06:29Z</time>
      </trkpt>
      <trkpt lat="44.73659" lon="5.04625">
        <ele>330.83</ele>
        <time>2022-03-02T09:06:42Z</time>
      </trkpt>
      <trkpt lat="44.73659" lon="5.04625">
        <ele>330.35</ele>
        <time>2022-03-02T09:06:43Z</time>
      </trkpt>
      <trkpt lat="44.73659" lon="5.04625">
        <ele>326.5</ele>
        <time>2022-03-02T09:06:46Z</time>
      </trkpt>
      <trkpt lat="44.73659" lon="5.04625">
        <ele>323.62</ele>
        <time>2022-03-02T09:06:50Z</time>
      </trkpt>
      <trkpt lat="44.73659" lon="5.04625">
        <ele>327.47</ele>
        <time>2022-03-02T09:06:56Z</time>
      </trkpt>
      <trkpt lat="44.73659" lon="5.04625">
        <ele>330.83</ele>
        <time>2022-03-02T09:06:59Z</time>
      </trkpt>
      <trkpt lat="44.73659" lon="5.04625">
        <ele>326.99</ele>
        <time>2022-03-02T09:07:08Z</time>
      </trkpt>
      <trkpt lat="44.73659" lon="5.04625">
        <ele>326.99</ele>
        <time>2022-03-02T09:07:09Z</time>
      </trkpt>
      <trkpt lat="44.73659" lon="5.04625">
        <ele>331.79</ele>
        <time>2022-03-02T09:07:25Z</time>
      </trkpt>
      <trkpt lat="44.73659" lon="5.04625">
        <ele>333.23</ele>
        <time>2022-03-02T09:07:28Z</time>
      </trkpt>
      <trkpt lat="44.73659" lon="5.04625">
        <ele>328.43</ele>
        <time>2022-03-02T09:07:30Z</time>
      </trkpt>
      <trkpt lat="44.73659" lon="5.04625">
        <ele>323.62</ele>
        <time>2022-03-02T09:07:32Z</time>
      </trkpt>
      <trkpt lat="44.73659" lon="5.04625">
        <ele>323.62</ele>
        <time>2022-03-02T09:07:33Z</time>
      </trkpt>
      <trkpt lat="44.73659" lon="5.04625">
        <ele>327.47</ele>
        <time>2022-03-02T09:07:38Z</time>
      </trkpt>
      <trkpt lat="44.73659" lon="5.04625">
        <ele>332.27</ele>
        <time>2022-03-02T09:07:40Z</time>
      </trkpt>
      <trkpt lat="44.73659" lon="5.04625">
        <ele>329.39</ele>
        <time>2022-03-02T09:07:46Z</time>
      </trkpt>
      <trkpt lat="44.73659" lon="5.04626">
        <ele>332.27</ele>
        <time>2022-03-02T09:08:06Z</time>
      </trkpt>
      <trkpt lat="44.73662" lon="5.04629">
        <ele>329.39</ele>
        <time>2022-03-02T09:08:17Z</time>
      </trkpt>
      <trkpt lat="44.73677" lon="5.04645">
        <ele>329.39</ele>
        <time>2022-03-02T09:08:37Z</time>
      </trkpt>
      <trkpt lat="44.73692" lon="5.04663">
        <ele>331.31</ele>
        <time>2022-03-02T09:09:00Z</time>
      </trkpt>
      <trkpt lat="44.73709" lon="5.04681">
        <ele>334.2</ele>
        <time>2022-03-02T09:09:24Z</time>
      </trkpt>
      <trkpt lat="44.73723" lon="5.04696">
        <ele>336.12</ele>
        <time>2022-03-02T09:09:46Z</time>
      </trkpt>
      <trkpt lat="44.73733" lon="5.0471">
        <ele>338.04</ele>
        <time>2022-03-02T09:10:04Z</time>
      </trkpt>
      <trkpt lat="44.73744" lon="5.04723">
        <ele>339.48</ele>
        <time>2022-03-02T09:10:23Z</time>
      </trkpt>
      <trkpt lat="44.73756" lon="5.04739">
        <ele>340.44</ele>
        <time>2022-03-02T09:10:42Z</time>
      </trkpt>
      <trkpt lat="44.73767" lon="5.04761">
        <ele>340.44</ele>
        <time>2022-03-02T09:11:03Z</time>
      </trkpt>
      <trkpt lat="44.73785" lon="5.04776">
        <ele>340.92</ele>
        <time>2022-03-02T09:11:25Z</time>
      </trkpt>
      <trkpt lat="44.73802" lon="5.04785">
        <ele>341.41</ele>
        <time>2022-03-02T09:11:44Z</time>
      </trkpt>
      <trkpt lat="44.73823" lon="5.04785">
        <ele>339.96</ele>
        <time>2022-03-02T09:12:04Z</time>
      </trkpt>
      <trkpt lat="44.73842" lon="5.04791">
        <ele>339</ele>
        <time>2022-03-02T09:12:23Z</time>
      </trkpt>
      <trkpt lat="44.73863" lon="5.04801">
        <ele>337.56</ele>
        <time>2022-03-02T09:12:43Z</time>
      </trkpt>
      <trkpt lat="44.73885" lon="5.04812">
        <ele>337.08</ele>
        <time>2022-03-02T09:13:05Z</time>
      </trkpt>
      <trkpt lat="44.73909" lon="5.04824">
        <ele>337.08</ele>
        <time>2022-03-02T09:13:29Z</time>
      </trkpt>
      <trkpt lat="44.7393" lon="5.04834">
        <ele>337.08</ele>
        <time>2022-03-02T09:13:51Z</time>
      </trkpt>
      <trkpt lat="44.73952" lon="5.04843">
        <ele>336.12</ele>
        <time>2022-03-02T09:14:13Z</time>
      </trkpt>
      <trkpt lat="44.7397" lon="5.04854">
        <ele>334.68</ele>
        <time>2022-03-02T09:14:34Z</time>
      </trkpt>
      <trkpt lat="44.73991" lon="5.04859">
        <ele>334.2</ele>
        <time>2022-03-02T09:14:53Z</time>
      </trkpt>
      <trkpt lat="44.74014" lon="5.04862">
        <ele>334.2</ele>
        <time>2022-03-02T09:15:16Z</time>
      </trkpt>
      <trkpt lat="44.74037" lon="5.04865">
        <ele>334.2</ele>
        <time>2022-03-02T09:15:37Z</time>
      </trkpt>
      <trkpt lat="44.74061" lon="5.04868">
        <ele>335.16</ele>
        <time>2022-03-02T09:16:02Z</time>
      </trkpt>
      <trkpt lat="44.74075" lon="5.04868">
        <ele>335.16</ele>
        <time>2022-03-02T09:16:20Z</time>
      </trkpt>
      <trkpt lat="44.74079" lon="5.04864">
        <ele>335.64</ele>
        <time>2022-03-02T09:16:36Z</time>
      </trkpt>
      <trkpt lat="44.7409" lon="5.04857">
        <ele>336.6</ele>
        <time>2022-03-02T09:16:55Z</time>
      </trkpt>
      <trkpt lat="44.741" lon="5.04848">
        <ele>338.04</ele>
        <time>2022-03-02T09:17:12Z</time>
      </trkpt>
      <trkpt lat="44.74113" lon="5.0484">
        <ele>339.48</ele>
        <time>2022-03-02T09:17:32Z</time>
      </trkpt>
      <trkpt lat="44.74124" lon="5.04834">
        <ele>340.92</ele>
        <time>2022-03-02T09:17:50Z</time>
      </trkpt>
      <trkpt lat="44.74134" lon="5.04829">
        <ele>342.85</ele>
        <time>2022-03-02T09:18:08Z</time>
      </trkpt>
      <trkpt lat="44.74146" lon="5.0482">
        <ele>344.77</ele>
        <time>2022-03-02T09:18:28Z</time>
      </trkpt>
      <trkpt lat="44.74156" lon="5.04811">
        <ele>346.21</ele>
        <time>2022-03-02T09:18:45Z</time>
      </trkpt>
      <trkpt lat="44.74165" lon="5.04805">
        <ele>348.13</ele>
        <time>2022-03-02T09:19:00Z</time>
      </trkpt>
      <trkpt lat="44.74175" lon="5.04794">
        <ele>350.54</ele>
        <time>2022-03-02T09:19:21Z</time>
      </trkpt>
      <trkpt lat="44.74181" lon="5.04787">
        <ele>351.5</ele>
        <time>2022-03-02T09:19:37Z</time>
      </trkpt>
      <trkpt lat="44.74188" lon="5.04776">
        <ele>353.42</ele>
        <time>2022-03-02T09:19:57Z</time>
      </trkpt>
      <trkpt lat="44.74193" lon="5.04767">
        <ele>355.83</ele>
        <time>2022-03-02T09:20:16Z</time>
      </trkpt>
      <trkpt lat="44.74201" lon="5.04758">
        <ele>358.71</ele>
        <time>2022-03-02T09:20:39Z</time>
      </trkpt>
      <trkpt lat="44.74206" lon="5.0475">
        <ele>361.11</ele>
        <time>2022-03-02T09:20:55Z</time>
      </trkpt>
      <trkpt lat="44.74211" lon="5.04745">
        <ele>363.04</ele>
        <time>2022-03-02T09:21:09Z</time>
      </trkpt>
      <trkpt lat="44.74218" lon="5.04736">
        <ele>365.92</ele>
        <time>2022-03-02T09:21:28Z</time>
      </trkpt>
      <trkpt lat="44.74228" lon="5.04727">
        <ele>368.8</ele>
        <time>2022-03-02T09:21:45Z</time>
      </trkpt>
      <trkpt lat="44.7424" lon="5.04724">
        <ele>371.69</ele>
        <time>2022-03-02T09:22:06Z</time>
      </trkpt>
      <trkpt lat="44.74256" lon="5.0473">
        <ele>374.57</ele>
        <time>2022-03-02T09:22:27Z</time>
      </trkpt>
      <trkpt lat="44.74274" lon="5.04743">
        <ele>376.97</ele>
        <time>2022-03-02T09:22:51Z</time>
      </trkpt>
      <trkpt lat="44.74287" lon="5.04754">
        <ele>378.42</ele>
        <time>2022-03-02T09:23:08Z</time>
      </trkpt>
      <trkpt lat="44.74304" lon="5.04759">
        <ele>380.34</ele>
        <time>2022-03-02T09:23:29Z</time>
      </trkpt>
      <trkpt lat="44.74307" lon="5.0476">
        <ele>380.82</ele>
        <time>2022-03-02T09:23:47Z</time>
      </trkpt>
      <trkpt lat="44.74313" lon="5.04764">
        <ele>380.82</ele>
        <time>2022-03-02T09:24:08Z</time>
      </trkpt>
      <trkpt lat="44.74314" lon="5.04764">
        <ele>380.82</ele>
        <time>2022-03-02T09:24:09Z</time>
      </trkpt>
      <trkpt lat="44.74315" lon="5.04765">
        <ele>380.82</ele>
        <time>2022-03-02T09:24:10Z</time>
      </trkpt>
      <trkpt lat="44.7433" lon="5.04763">
        <ele>381.78</ele>
        <time>2022-03-02T09:24:29Z</time>
      </trkpt>
      <trkpt lat="44.74347" lon="5.04764">
        <ele>383.22</ele>
        <time>2022-03-02T09:24:51Z</time>
      </trkpt>
      <trkpt lat="44.74365" lon="5.04772">
        <ele>383.7</ele>
        <time>2022-03-02T09:25:11Z</time>
      </trkpt>
      <trkpt lat="44.74382" lon="5.04776">
        <ele>383.22</ele>
        <time>2022-03-02T09:25:28Z</time>
      </trkpt>
      <trkpt lat="44.74399" lon="5.0478">
        <ele>383.22</ele>
        <time>2022-03-02T09:25:46Z</time>
      </trkpt>
      <trkpt lat="44.7442" lon="5.04787">
        <ele>382.74</ele>
        <time>2022-03-02T09:26:09Z</time>
      </trkpt>
      <trkpt lat="44.7443" lon="5.04788">
        <ele>382.26</ele>
        <time>2022-03-02T09:26:24Z</time>
      </trkpt>
      <trkpt lat="44.74435" lon="5.04789">
        <ele>382.26</ele>
        <time>2022-03-02T09:26:29Z</time>
      </trkpt>
      <trkpt lat="44.74451" lon="5.04791">
        <ele>381.78</ele>
        <time>2022-03-02T09:26:47Z</time>
      </trkpt>
      <trkpt lat="44.7446" lon="5.04792">
        <ele>380.82</ele>
        <time>2022-03-02T09:26:56Z</time>
      </trkpt>
      <trkpt lat="44.74478" lon="5.04795">
        <ele>379.86</ele>
        <time>2022-03-02T09:27:16Z</time>
      </trkpt>
      <trkpt lat="44.74498" lon="5.04797">
        <ele>379.38</ele>
        <time>2022-03-02T09:27:37Z</time>
      </trkpt>
      <trkpt lat="44.74506" lon="5.04797">
        <ele>379.38</ele>
        <time>2022-03-02T09:27:45Z</time>
      </trkpt>
      <trkpt lat="44.74509" lon="5.04798">
        <ele>379.38</ele>
        <time>2022-03-02T09:27:48Z</time>
      </trkpt>
      <trkpt lat="44.74526" lon="5.04796">
        <ele>379.38</ele>
        <time>2022-03-02T09:28:04Z</time>
      </trkpt>
      <trkpt lat="44.74543" lon="5.04795">
        <ele>380.34</ele>
        <time>2022-03-02T09:28:22Z</time>
      </trkpt>
      <trkpt lat="44.74559" lon="5.04795">
        <ele>381.3</ele>
        <time>2022-03-02T09:28:38Z</time>
      </trkpt>
      <trkpt lat="44.74566" lon="5.04795">
        <ele>381.78</ele>
        <time>2022-03-02T09:28:45Z</time>
      </trkpt>
      <trkpt lat="44.74567" lon="5.04796">
        <ele>381.78</ele>
        <time>2022-03-02T09:28:46Z</time>
      </trkpt>
      <trkpt lat="44.74568" lon="5.04796">
        <ele>381.78</ele>
        <time>2022-03-02T09:28:47Z</time>
      </trkpt>
      <trkpt lat="44.74586" lon="5.048">
        <ele>382.74</ele>
        <time>2022-03-02T09:29:05Z</time>
      </trkpt>
      <trkpt lat="44.74606" lon="5.04801">
        <ele>383.7</ele>
        <time>2022-03-02T09:29:24Z</time>
      </trkpt>
      <trkpt lat="44.74628" lon="5.04801">
        <ele>384.66</ele>
        <time>2022-03-02T09:29:46Z</time>
      </trkpt>
      <trkpt lat="44.74645" lon="5.04802">
        <ele>386.11</ele>
        <time>2022-03-02T09:30:06Z</time>
      </trkpt>
      <trkpt lat="44.74659" lon="5.04808">
        <ele>387.55</ele>
        <time>2022-03-02T09:30:23Z</time>
      </trkpt>
      <trkpt lat="44.74672" lon="5.04809">
        <ele>388.99</ele>
        <time>2022-03-02T09:30:40Z</time>
      </trkpt>
      <trkpt lat="44.74674" lon="5.04814">
        <ele>389.47</ele>
        <time>2022-03-02T09:30:54Z</time>
      </trkpt>
      <trkpt lat="44.7468" lon="5.04811">
        <ele>389.95</ele>
        <time>2022-03-02T09:31:13Z</time>
      </trkpt>
      <trkpt lat="44.74694" lon="5.04813">
        <ele>390.43</ele>
        <time>2022-03-02T09:31:34Z</time>
      </trkpt>
      <trkpt lat="44.74708" lon="5.04814">
        <ele>391.87</ele>
        <time>2022-03-02T09:31:53Z</time>
      </trkpt>
      <trkpt lat="44.74713" lon="5.04813">
        <ele>391.87</ele>
        <time>2022-03-02T09:31:59Z</time>
      </trkpt>
      <trkpt lat="44.74716" lon="5.04812">
        <ele>391.87</ele>
        <time>2022-03-02T09:32:02Z</time>
      </trkpt>
      <trkpt lat="44.74733" lon="5.0481">
        <ele>393.8</ele>
        <time>2022-03-02T09:32:21Z</time>
      </trkpt>
      <trkpt lat="44.74756" lon="5.04814">
        <ele>394.28</ele>
        <time>2022-03-02T09:32:42Z</time>
      </trkpt>
      <trkpt lat="44.7478" lon="5.04816">
        <ele>395.24</ele>
        <time>2022-03-02T09:33:04Z</time>
      </trkpt>
      <trkpt lat="44.74797" lon="5.04815">
        <ele>395.72</ele>
        <time>2022-03-02T09:33:21Z</time>
      </trkpt>
      <trkpt lat="44.74816" lon="5.04814">
        <ele>396.68</ele>
        <time>2022-03-02T09:33:39Z</time>
      </trkpt>
      <trkpt lat="44.74837" lon="5.04814">
        <ele>397.64</ele>
        <time>2022-03-02T09:33:59Z</time>
      </trkpt>
      <trkpt lat="44.74845" lon="5.04813">
        <ele>398.12</ele>
        <time>2022-03-02T09:34:17Z</time>
      </trkpt>
      <trkpt lat="44.74848" lon="5.0481">
        <ele>398.6</ele>
        <time>2022-03-02T09:34:31Z</time>
      </trkpt>
      <trkpt lat="44.74848" lon="5.0481">
        <ele>398.6</ele>
        <time>2022-03-02T09:34:59Z</time>
      </trkpt>
      <trkpt lat="44.74847" lon="5.04811">
        <ele>398.6</ele>
        <time>2022-03-02T09:35:23Z</time>
      </trkpt>
      <trkpt lat="44.74849" lon="5.04811">
        <ele>398.6</ele>
        <time>2022-03-02T09:35:25Z</time>
      </trkpt>
      <trkpt lat="44.74855" lon="5.04811">
        <ele>398.6</ele>
        <time>2022-03-02T09:35:30Z</time>
      </trkpt>
      <trkpt lat="44.74857" lon="5.0481">
        <ele>398.6</ele>
        <time>2022-03-02T09:35:32Z</time>
      </trkpt>
      <trkpt lat="44.74858" lon="5.0481">
        <ele>398.6</ele>
        <time>2022-03-02T09:35:33Z</time>
      </trkpt>
      <trkpt lat="44.74859" lon="5.04809">
        <ele>398.6</ele>
        <time>2022-03-02T09:35:34Z</time>
      </trkpt>
      <trkpt lat="44.74881" lon="5.04808">
        <ele>398.12</ele>
        <time>2022-03-02T09:35:54Z</time>
      </trkpt>
      <trkpt lat="44.74895" lon="5.04808">
        <ele>398.12</ele>
        <time>2022-03-02T09:36:07Z</time>
      </trkpt>
      <trkpt lat="44.74911" lon="5.04803">
        <ele>397.16</ele>
        <time>2022-03-02T09:36:27Z</time>
      </trkpt>
      <trkpt lat="44.74921" lon="5.04802">
        <ele>396.2</ele>
        <time>2022-03-02T09:36:34Z</time>
      </trkpt>
      <trkpt lat="44.74936" lon="5.04792">
        <ele>397.16</ele>
        <time>2022-03-02T09:36:51Z</time>
      </trkpt>
      <trkpt lat="44.7495" lon="5.04783">
        <ele>398.12</ele>
        <time>2022-03-02T09:37:05Z</time>
      </trkpt>
      <trkpt lat="44.74963" lon="5.04772">
        <ele>400.53</ele>
        <time>2022-03-02T09:37:23Z</time>
      </trkpt>
      <trkpt lat="44.74964" lon="5.04771">
        <ele>400.53</ele>
        <time>2022-03-02T09:37:39Z</time>
      </trkpt>
      <trkpt lat="44.74964" lon="5.04772">
        <ele>400.53</ele>
        <time>2022-03-02T09:38:05Z</time>
      </trkpt>
      <trkpt lat="44.74964" lon="5.04771">
        <ele>400.53</ele>
        <time>2022-03-02T09:38:32Z</time>
      </trkpt>
      <trkpt lat="44.74964" lon="5.04771">
        <ele>400.53</ele>
        <time>2022-03-02T09:39:21Z</time>
      </trkpt>
      <trkpt lat="44.74964" lon="5.04771">
        <ele>400.53</ele>
        <time>2022-03-02T09:39:53Z</time>
      </trkpt>
      <trkpt lat="44.74965" lon="5.04772">
        <ele>400.53</ele>
        <time>2022-03-02T09:40:44Z</time>
      </trkpt>
      <trkpt lat="44.74965" lon="5.04772">
        <ele>400.53</ele>
        <time>2022-03-02T09:41:17Z</time>
      </trkpt>
      <trkpt lat="44.74965" lon="5.04771">
        <ele>400.53</ele>
        <time>2022-03-02T09:41:45Z</time>
      </trkpt>
      <trkpt lat="44.74965" lon="5.04771">
        <ele>400.53</ele>
        <time>2022-03-02T09:42:25Z</time>
      </trkpt>
      <trkpt lat="44.74964" lon="5.04771">
        <ele>400.53</ele>
        <time>2022-03-02T09:42:50Z</time>
      </trkpt>
      <trkpt lat="44.74965" lon="5.04771">
        <ele>400.53</ele>
        <time>2022-03-02T09:43:51Z</time>
      </trkpt>
      <trkpt lat="44.74965" lon="5.04771">
        <ele>400.53</ele>
        <time>2022-03-02T09:44:25Z</time>
      </trkpt>
      <trkpt lat="44.74965" lon="5.04771">
        <ele>400.53</ele>
        <time>2022-03-02T09:45:16Z</time>
      </trkpt>
      <trkpt lat="44.74976" lon="5.04764">
        <ele>401.49</ele>
        <time>2022-03-02T09:45:39Z</time>
      </trkpt>
      <trkpt lat="44.74989" lon="5.04762">
        <ele>400.53</ele>
        <time>2022-03-02T09:45:56Z</time>
      </trkpt>
      <trkpt lat="44.75003" lon="5.04757">
        <ele>398.6</ele>
        <time>2022-03-02T09:46:14Z</time>
      </trkpt>
      <trkpt lat="44.75021" lon="5.04749">
        <ele>397.16</ele>
        <time>2022-03-02T09:46:34Z</time>
      </trkpt>
      <trkpt lat="44.75041" lon="5.04737">
        <ele>396.68</ele>
        <time>2022-03-02T09:46:54Z</time>
      </trkpt>
      <trkpt lat="44.75062" lon="5.04727">
        <ele>397.16</ele>
        <time>2022-03-02T09:47:15Z</time>
      </trkpt>
      <trkpt lat="44.75078" lon="5.04717">
        <ele>397.16</ele>
        <time>2022-03-02T09:47:31Z</time>
      </trkpt>
      <trkpt lat="44.75094" lon="5.04712">
        <ele>397.64</ele>
        <time>2022-03-02T09:47:47Z</time>
      </trkpt>
      <trkpt lat="44.75095" lon="5.04711">
        <ele>397.64</ele>
        <time>2022-03-02T09:47:48Z</time>
      </trkpt>
      <trkpt lat="44.75117" lon="5.04706">
        <ele>398.12</ele>
        <time>2022-03-02T09:48:09Z</time>
      </trkpt>
      <trkpt lat="44.75135" lon="5.04703">
        <ele>398.6</ele>
        <time>2022-03-02T09:48:27Z</time>
      </trkpt>
      <trkpt lat="44.75138" lon="5.04703">
        <ele>398.6</ele>
        <time>2022-03-02T09:48:31Z</time>
      </trkpt>
      <trkpt lat="44.75156" lon="5.04705">
        <ele>399.57</ele>
        <time>2022-03-02T09:48:49Z</time>
      </trkpt>
      <trkpt lat="44.75173" lon="5.04711">
        <ele>401.01</ele>
        <time>2022-03-02T09:49:08Z</time>
      </trkpt>
      <trkpt lat="44.75188" lon="5.04715">
        <ele>401.97</ele>
        <time>2022-03-02T09:49:24Z</time>
      </trkpt>
      <trkpt lat="44.75207" lon="5.04716">
        <ele>403.41</ele>
        <time>2022-03-02T09:49:44Z</time>
      </trkpt>
      <trkpt lat="44.75223" lon="5.0471">
        <ele>404.37</ele>
        <time>2022-03-02T09:50:01Z</time>
      </trkpt>
      <trkpt lat="44.75237" lon="5.047">
        <ele>405.81</ele>
        <time>2022-03-02T09:50:18Z</time>
      </trkpt>
      <trkpt lat="44.75252" lon="5.04685">
        <ele>407.26</ele>
        <time>2022-03-02T09:50:37Z</time>
      </trkpt>
      <trkpt lat="44.75265" lon="5.0467">
        <ele>408.7</ele>
        <time>2022-03-02T09:50:57Z</time>
      </trkpt>
      <trkpt lat="44.75282" lon="5.04659">
        <ele>409.66</ele>
        <time>2022-03-02T09:51:18Z</time>
      </trkpt>
      <trkpt lat="44.75299" lon="5.04647">
        <ele>411.1</ele>
        <time>2022-03-02T09:51:38Z</time>
      </trkpt>
      <trkpt lat="44.75315" lon="5.04638">
        <ele>413.02</ele>
        <time>2022-03-02T09:51:58Z</time>
      </trkpt>
      <trkpt lat="44.75333" lon="5.04634">
        <ele>413.98</ele>
        <time>2022-03-02T09:52:16Z</time>
      </trkpt>
      <trkpt lat="44.7535" lon="5.0463">
        <ele>414.95</ele>
        <time>2022-03-02T09:52:34Z</time>
      </trkpt>
      <trkpt lat="44.75354" lon="5.04629">
        <ele>414.95</ele>
        <time>2022-03-02T09:52:39Z</time>
      </trkpt>
      <trkpt lat="44.75363" lon="5.04629">
        <ele>415.43</ele>
        <time>2022-03-02T09:52:47Z</time>
      </trkpt>
      <trkpt lat="44.7538" lon="5.04625">
        <ele>416.87</ele>
        <time>2022-03-02T09:53:05Z</time>
      </trkpt>
      <trkpt lat="44.75395" lon="5.0461">
        <ele>417.35</ele>
        <time>2022-03-02T09:53:23Z</time>
      </trkpt>
      <trkpt lat="44.75412" lon="5.04599">
        <ele>418.31</ele>
        <time>2022-03-02T09:53:41Z</time>
      </trkpt>
      <trkpt lat="44.75432" lon="5.04596">
        <ele>420.23</ele>
        <time>2022-03-02T09:54:01Z</time>
      </trkpt>
      <trkpt lat="44.75449" lon="5.0459">
        <ele>423.6</ele>
        <time>2022-03-02T09:54:20Z</time>
      </trkpt>
      <trkpt lat="44.75463" lon="5.04587">
        <ele>425.52</ele>
        <time>2022-03-02T09:54:35Z</time>
      </trkpt>
      <trkpt lat="44.7548" lon="5.04583">
        <ele>427.92</ele>
        <time>2022-03-02T09:54:54Z</time>
      </trkpt>
      <trkpt lat="44.75497" lon="5.04578">
        <ele>429.37</ele>
        <time>2022-03-02T09:55:12Z</time>
      </trkpt>
      <trkpt lat="44.75516" lon="5.04568">
        <ele>431.29</ele>
        <time>2022-03-02T09:55:32Z</time>
      </trkpt>
      <trkpt lat="44.75531" lon="5.04566">
        <ele>432.73</ele>
        <time>2022-03-02T09:55:50Z</time>
      </trkpt>
      <trkpt lat="44.75546" lon="5.04562">
        <ele>435.61</ele>
        <time>2022-03-02T09:56:11Z</time>
      </trkpt>
      <trkpt lat="44.75556" lon="5.04554">
        <ele>438.5</ele>
        <time>2022-03-02T09:56:27Z</time>
      </trkpt>
      <trkpt lat="44.75571" lon="5.04551">
        <ele>440.42</ele>
        <time>2022-03-02T09:56:46Z</time>
      </trkpt>
      <trkpt lat="44.75585" lon="5.04554">
        <ele>441.86</ele>
        <time>2022-03-02T09:57:01Z</time>
      </trkpt>
      <trkpt lat="44.75601" lon="5.04558">
        <ele>444.27</ele>
        <time>2022-03-02T09:57:21Z</time>
      </trkpt>
      <trkpt lat="44.75616" lon="5.04564">
        <ele>446.19</ele>
        <time>2022-03-02T09:57:41Z</time>
      </trkpt>
      <trkpt lat="44.75627" lon="5.04567">
        <ele>448.11</ele>
        <time>2022-03-02T09:57:58Z</time>
      </trkpt>
      <trkpt lat="44.75637" lon="5.04569">
        <ele>450.03</ele>
        <time>2022-03-02T09:58:16Z</time>
      </trkpt>
      <trkpt lat="44.75652" lon="5.04569">
        <ele>452.92</ele>
        <time>2022-03-02T09:58:38Z</time>
      </trkpt>
      <trkpt lat="44.75668" lon="5.04576">
        <ele>455.8</ele>
        <time>2022-03-02T09:58:57Z</time>
      </trkpt>
      <trkpt lat="44.75682" lon="5.0459">
        <ele>456.76</ele>
        <time>2022-03-02T09:59:16Z</time>
      </trkpt>
      <trkpt lat="44.75695" lon="5.04598">
        <ele>458.21</ele>
        <time>2022-03-02T09:59:34Z</time>
      </trkpt>
      <trkpt lat="44.75696" lon="5.04599">
        <ele>458.21</ele>
        <time>2022-03-02T09:59:35Z</time>
      </trkpt>
      <trkpt lat="44.7571" lon="5.04608">
        <ele>459.65</ele>
        <time>2022-03-02T09:59:53Z</time>
      </trkpt>
      <trkpt lat="44.75721" lon="5.04619">
        <ele>461.09</ele>
        <time>2022-03-02T10:00:09Z</time>
      </trkpt>
      <trkpt lat="44.75725" lon="5.04624">
        <ele>461.57</ele>
        <time>2022-03-02T10:00:15Z</time>
      </trkpt>
      <trkpt lat="44.75737" lon="5.04642">
        <ele>462.53</ele>
        <time>2022-03-02T10:00:36Z</time>
      </trkpt>
      <trkpt lat="44.75755" lon="5.04667">
        <ele>463.49</ele>
        <time>2022-03-02T10:01:04Z</time>
      </trkpt>
      <trkpt lat="44.75769" lon="5.04679">
        <ele>464.45</ele>
        <time>2022-03-02T10:01:22Z</time>
      </trkpt>
      <trkpt lat="44.75782" lon="5.04701">
        <ele>465.9</ele>
        <time>2022-03-02T10:01:44Z</time>
      </trkpt>
      <trkpt lat="44.75787" lon="5.04717">
        <ele>466.86</ele>
        <time>2022-03-02T10:01:58Z</time>
      </trkpt>
      <trkpt lat="44.75792" lon="5.04736">
        <ele>468.3</ele>
        <time>2022-03-02T10:02:15Z</time>
      </trkpt>
      <trkpt lat="44.75799" lon="5.04758">
        <ele>469.74</ele>
        <time>2022-03-02T10:02:34Z</time>
      </trkpt>
      <trkpt lat="44.75806" lon="5.04776">
        <ele>471.66</ele>
        <time>2022-03-02T10:02:52Z</time>
      </trkpt>
      <trkpt lat="44.75817" lon="5.04793">
        <ele>474.07</ele>
        <time>2022-03-02T10:03:12Z</time>
      </trkpt>
      <trkpt lat="44.75831" lon="5.04805">
        <ele>476.95</ele>
        <time>2022-03-02T10:03:36Z</time>
      </trkpt>
      <trkpt lat="44.75845" lon="5.04818">
        <ele>479.84</ele>
        <time>2022-03-02T10:04:00Z</time>
      </trkpt>
      <trkpt lat="44.75857" lon="5.04831">
        <ele>482.72</ele>
        <time>2022-03-02T10:04:22Z</time>
      </trkpt>
      <trkpt lat="44.75865" lon="5.04849">
        <ele>485.6</ele>
        <time>2022-03-02T10:04:42Z</time>
      </trkpt>
      <trkpt lat="44.75872" lon="5.04856">
        <ele>486.56</ele>
        <time>2022-03-02T10:05:00Z</time>
      </trkpt>
      <trkpt lat="44.75882" lon="5.04863">
        <ele>487.05</ele>
        <time>2022-03-02T10:05:16Z</time>
      </trkpt>
      <trkpt lat="44.75895" lon="5.04871">
        <ele>487.53</ele>
        <time>2022-03-02T10:05:34Z</time>
      </trkpt>
      <trkpt lat="44.759" lon="5.04876">
        <ele>487.05</ele>
        <time>2022-03-02T10:05:50Z</time>
      </trkpt>
      <trkpt lat="44.75911" lon="5.0488">
        <ele>486.08</ele>
        <time>2022-03-02T10:06:08Z</time>
      </trkpt>
      <trkpt lat="44.75917" lon="5.04879">
        <ele>485.6</ele>
        <time>2022-03-02T10:06:19Z</time>
      </trkpt>
      <trkpt lat="44.75919" lon="5.04879">
        <ele>485.12</ele>
        <time>2022-03-02T10:06:21Z</time>
      </trkpt>
      <trkpt lat="44.75923" lon="5.04879">
        <ele>484.64</ele>
        <time>2022-03-02T10:06:26Z</time>
      </trkpt>
      <trkpt lat="44.75926" lon="5.04881">
        <ele>484.64</ele>
        <time>2022-03-02T10:06:29Z</time>
      </trkpt>
      <trkpt lat="44.75943" lon="5.04888">
        <ele>483.2</ele>
        <time>2022-03-02T10:06:48Z</time>
      </trkpt>
      <trkpt lat="44.75958" lon="5.04895">
        <ele>481.76</ele>
        <time>2022-03-02T10:07:05Z</time>
      </trkpt>
      <trkpt lat="44.75977" lon="5.04902">
        <ele>479.84</ele>
        <time>2022-03-02T10:07:25Z</time>
      </trkpt>
      <trkpt lat="44.75993" lon="5.04909">
        <ele>478.39</ele>
        <time>2022-03-02T10:07:42Z</time>
      </trkpt>
      <trkpt lat="44.76015" lon="5.04919">
        <ele>476.95</ele>
        <time>2022-03-02T10:08:03Z</time>
      </trkpt>
      <trkpt lat="44.76036" lon="5.04924">
        <ele>475.51</ele>
        <time>2022-03-02T10:08:23Z</time>
      </trkpt>
      <trkpt lat="44.76057" lon="5.04928">
        <ele>474.55</ele>
        <time>2022-03-02T10:08:43Z</time>
      </trkpt>
      <trkpt lat="44.76076" lon="5.04931">
        <ele>474.07</ele>
        <time>2022-03-02T10:09:02Z</time>
      </trkpt>
      <trkpt lat="44.76096" lon="5.04936">
        <ele>473.59</ele>
        <time>2022-03-02T10:09:27Z</time>
      </trkpt>
      <trkpt lat="44.7611" lon="5.04938">
        <ele>474.55</ele>
        <time>2022-03-02T10:09:49Z</time>
      </trkpt>
      <trkpt lat="44.76114" lon="5.04949">
        <ele>475.03</ele>
        <time>2022-03-02T10:10:10Z</time>
      </trkpt>
      <trkpt lat="44.76138" lon="5.04951">
        <ele>475.03</ele>
        <time>2022-03-02T10:10:35Z</time>
      </trkpt>
      <trkpt lat="44.76156" lon="5.04955">
        <ele>474.07</ele>
        <time>2022-03-02T10:10:52Z</time>
      </trkpt>
      <trkpt lat="44.76178" lon="5.04959">
        <ele>473.11</ele>
        <time>2022-03-02T10:11:12Z</time>
      </trkpt>
      <trkpt lat="44.76197" lon="5.04962">
        <ele>472.14</ele>
        <time>2022-03-02T10:11:30Z</time>
      </trkpt>
      <trkpt lat="44.76211" lon="5.04965">
        <ele>472.14</ele>
        <time>2022-03-02T10:11:45Z</time>
      </trkpt>
      <trkpt lat="44.7623" lon="5.04969">
        <ele>472.63</ele>
        <time>2022-03-02T10:12:05Z</time>
      </trkpt>
      <trkpt lat="44.76245" lon="5.04977">
        <ele>473.59</ele>
        <time>2022-03-02T10:12:24Z</time>
      </trkpt>
      <trkpt lat="44.7626" lon="5.0498">
        <ele>475.03</ele>
        <time>2022-03-02T10:12:42Z</time>
      </trkpt>
      <trkpt lat="44.76276" lon="5.04986">
        <ele>476.47</ele>
        <time>2022-03-02T10:13:03Z</time>
      </trkpt>
      <trkpt lat="44.76289" lon="5.04991">
        <ele>478.39</ele>
        <time>2022-03-02T10:13:21Z</time>
      </trkpt>
      <trkpt lat="44.76302" lon="5.04999">
        <ele>480.8</ele>
        <time>2022-03-02T10:13:45Z</time>
      </trkpt>
      <trkpt lat="44.76318" lon="5.05003">
        <ele>483.2</ele>
        <time>2022-03-02T10:14:08Z</time>
      </trkpt>
      <trkpt lat="44.76333" lon="5.05007">
        <ele>485.6</ele>
        <time>2022-03-02T10:14:30Z</time>
      </trkpt>
      <trkpt lat="44.7635" lon="5.05014">
        <ele>488.01</ele>
        <time>2022-03-02T10:14:53Z</time>
      </trkpt>
      <trkpt lat="44.76371" lon="5.05019">
        <ele>490.89</ele>
        <time>2022-03-02T10:15:20Z</time>
      </trkpt>
      <trkpt lat="44.76392" lon="5.0502">
        <ele>492.81</ele>
        <time>2022-03-02T10:15:49Z</time>
      </trkpt>
      <trkpt lat="44.76416" lon="5.0501">
        <ele>495.7</ele>
        <time>2022-03-02T10:16:16Z</time>
      </trkpt>
      <trkpt lat="44.76442" lon="5.05007">
        <ele>498.1</ele>
        <time>2022-03-02T10:16:47Z</time>
      </trkpt>
      <trkpt lat="44.76464" lon="5.05011">
        <ele>500.98</ele>
        <time>2022-03-02T10:17:15Z</time>
      </trkpt>
      <trkpt lat="44.76482" lon="5.05015">
        <ele>503.39</ele>
        <time>2022-03-02T10:17:39Z</time>
      </trkpt>
      <trkpt lat="44.76501" lon="5.05018">
        <ele>505.79</ele>
        <time>2022-03-02T10:18:06Z</time>
      </trkpt>
      <trkpt lat="44.76515" lon="5.05017">
        <ele>507.71</ele>
        <time>2022-03-02T10:18:25Z</time>
      </trkpt>
      <trkpt lat="44.76526" lon="5.05019">
        <ele>509.16</ele>
        <time>2022-03-02T10:18:42Z</time>
      </trkpt>
      <trkpt lat="44.76545" lon="5.05023">
        <ele>510.6</ele>
        <time>2022-03-02T10:19:06Z</time>
      </trkpt>
      <trkpt lat="44.7656" lon="5.05027">
        <ele>511.08</ele>
        <time>2022-03-02T10:19:22Z</time>
      </trkpt>
      <trkpt lat="44.76562" lon="5.05027">
        <ele>511.08</ele>
        <time>2022-03-02T10:19:24Z</time>
      </trkpt>
      <trkpt lat="44.76579" lon="5.0503">
        <ele>511.56</ele>
        <time>2022-03-02T10:19:40Z</time>
      </trkpt>
      <trkpt lat="44.76596" lon="5.05036">
        <ele>512.04</ele>
        <time>2022-03-02T10:19:58Z</time>
      </trkpt>
      <trkpt lat="44.76615" lon="5.0504">
        <ele>513</ele>
        <time>2022-03-02T10:20:21Z</time>
      </trkpt>
      <trkpt lat="44.76619" lon="5.05043">
        <ele>513.48</ele>
        <time>2022-03-02T10:20:38Z</time>
      </trkpt>
      <trkpt lat="44.76619" lon="5.05044">
        <ele>512.52</ele>
        <time>2022-03-02T10:21:11Z</time>
      </trkpt>
      <trkpt lat="44.76619" lon="5.05044">
        <ele>512.52</ele>
        <time>2022-03-02T10:21:45Z</time>
      </trkpt>
      <trkpt lat="44.7662" lon="5.05044">
        <ele>512.52</ele>
        <time>2022-03-02T10:22:12Z</time>
      </trkpt>
      <trkpt lat="44.7662" lon="5.05044">
        <ele>512.52</ele>
        <time>2022-03-02T10:22:35Z</time>
      </trkpt>
      <trkpt lat="44.76631" lon="5.05045">
        <ele>512.52</ele>
        <time>2022-03-02T10:22:57Z</time>
      </trkpt>
      <trkpt lat="44.76646" lon="5.0505">
        <ele>512.52</ele>
        <time>2022-03-02T10:23:16Z</time>
      </trkpt>
      <trkpt lat="44.76665" lon="5.05061">
        <ele>512.52</ele>
        <time>2022-03-02T10:23:37Z</time>
      </trkpt>
      <trkpt lat="44.76684" lon="5.05067">
        <ele>513.48</ele>
        <time>2022-03-02T10:23:57Z</time>
      </trkpt>
      <trkpt lat="44.76687" lon="5.05067">
        <ele>517.81</ele>
        <time>2022-03-02T10:23:59Z</time>
      </trkpt>
      <trkpt lat="44.76691" lon="5.0507">
        <ele>520.69</ele>
        <time>2022-03-02T10:24:03Z</time>
      </trkpt>
      <trkpt lat="44.767" lon="5.05077">
        <ele>523.09</ele>
        <time>2022-03-02T10:24:21Z</time>
      </trkpt>
      <trkpt lat="44.76701" lon="5.05079">
        <ele>524.06</ele>
        <time>2022-03-02T10:24:42Z</time>
      </trkpt>
      <trkpt lat="44.76701" lon="5.0508">
        <ele>524.06</ele>
        <time>2022-03-02T10:25:12Z</time>
      </trkpt>
      <trkpt lat="44.76701" lon="5.05081">
        <ele>524.54</ele>
        <time>2022-03-02T10:25:39Z</time>
      </trkpt>
      <trkpt lat="44.76704" lon="5.05084">
        <ele>524.06</ele>
        <time>2022-03-02T10:26:02Z</time>
      </trkpt>
      <trkpt lat="44.7672" lon="5.05098">
        <ele>522.61</ele>
        <time>2022-03-02T10:26:27Z</time>
      </trkpt>
      <trkpt lat="44.76733" lon="5.0511">
        <ele>521.17</ele>
        <time>2022-03-02T10:26:43Z</time>
      </trkpt>
      <trkpt lat="44.76734" lon="5.0511">
        <ele>521.17</ele>
        <time>2022-03-02T10:26:44Z</time>
      </trkpt>
      <trkpt lat="44.76751" lon="5.0513">
        <ele>521.17</ele>
        <time>2022-03-02T10:27:07Z</time>
      </trkpt>
      <trkpt lat="44.7677" lon="5.05149">
        <ele>520.69</ele>
        <time>2022-03-02T10:27:32Z</time>
      </trkpt>
      <trkpt lat="44.7679" lon="5.05168">
        <ele>521.17</ele>
        <time>2022-03-02T10:27:58Z</time>
      </trkpt>
      <trkpt lat="44.76809" lon="5.05184">
        <ele>522.61</ele>
        <time>2022-03-02T10:28:23Z</time>
      </trkpt>
      <trkpt lat="44.76828" lon="5.05199">
        <ele>523.58</ele>
        <time>2022-03-02T10:28:49Z</time>
      </trkpt>
      <trkpt lat="44.76853" lon="5.05209">
        <ele>524.54</ele>
        <time>2022-03-02T10:29:14Z</time>
      </trkpt>
      <trkpt lat="44.7687" lon="5.05222">
        <ele>525.98</ele>
        <time>2022-03-02T10:29:39Z</time>
      </trkpt>
      <trkpt lat="44.76894" lon="5.05228">
        <ele>526.46</ele>
        <time>2022-03-02T10:30:03Z</time>
      </trkpt>
      <trkpt lat="44.76918" lon="5.05236">
        <ele>527.42</ele>
        <time>2022-03-02T10:30:28Z</time>
      </trkpt>
      <trkpt lat="44.76938" lon="5.05259">
        <ele>526.94</ele>
        <time>2022-03-02T10:30:53Z</time>
      </trkpt>
      <trkpt lat="44.76951" lon="5.05285">
        <ele>528.86</ele>
        <time>2022-03-02T10:31:18Z</time>
      </trkpt>
      <trkpt lat="44.76958" lon="5.05321">
        <ele>531.27</ele>
        <time>2022-03-02T10:31:44Z</time>
      </trkpt>
      <trkpt lat="44.76961" lon="5.05346">
        <ele>534.15</ele>
        <time>2022-03-02T10:32:10Z</time>
      </trkpt>
      <trkpt lat="44.76973" lon="5.05373">
        <ele>537.03</ele>
        <time>2022-03-02T10:32:37Z</time>
      </trkpt>
      <trkpt lat="44.76987" lon="5.05398">
        <ele>539.92</ele>
        <time>2022-03-02T10:33:06Z</time>
      </trkpt>
      <trkpt lat="44.77001" lon="5.05422">
        <ele>541.84</ele>
        <time>2022-03-02T10:33:32Z</time>
      </trkpt>
      <trkpt lat="44.77023" lon="5.05437">
        <ele>542.32</ele>
        <time>2022-03-02T10:33:54Z</time>
      </trkpt>
      <trkpt lat="44.7705" lon="5.05451">
        <ele>543.28</ele>
        <time>2022-03-02T10:34:20Z</time>
      </trkpt>
      <trkpt lat="44.77072" lon="5.05459">
        <ele>545.2</ele>
        <time>2022-03-02T10:34:45Z</time>
      </trkpt>
      <trkpt lat="44.77088" lon="5.05465">
        <ele>547.13</ele>
        <time>2022-03-02T10:35:05Z</time>
      </trkpt>
      <trkpt lat="44.77108" lon="5.0547">
        <ele>548.57</ele>
        <time>2022-03-02T10:35:25Z</time>
      </trkpt>
      <trkpt lat="44.77127" lon="5.05475">
        <ele>550.97</ele>
        <time>2022-03-02T10:35:50Z</time>
      </trkpt>
      <trkpt lat="44.77139" lon="5.0548">
        <ele>552.9</ele>
        <time>2022-03-02T10:36:08Z</time>
      </trkpt>
      <trkpt lat="44.77154" lon="5.05492">
        <ele>555.78</ele>
        <time>2022-03-02T10:36:31Z</time>
      </trkpt>
      <trkpt lat="44.77166" lon="5.05503">
        <ele>558.18</ele>
        <time>2022-03-02T10:36:55Z</time>
      </trkpt>
      <trkpt lat="44.77179" lon="5.05511">
        <ele>561.55</ele>
        <time>2022-03-02T10:37:17Z</time>
      </trkpt>
      <trkpt lat="44.77201" lon="5.05526">
        <ele>563.47</ele>
        <time>2022-03-02T10:37:48Z</time>
      </trkpt>
      <trkpt lat="44.77219" lon="5.05541">
        <ele>562.51</ele>
        <time>2022-03-02T10:38:15Z</time>
      </trkpt>
      <trkpt lat="44.77239" lon="5.05562">
        <ele>561.07</ele>
        <time>2022-03-02T10:38:41Z</time>
      </trkpt>
      <trkpt lat="44.7726" lon="5.05577">
        <ele>561.07</ele>
        <time>2022-03-02T10:39:06Z</time>
      </trkpt>
      <trkpt lat="44.77281" lon="5.05591">
        <ele>560.11</ele>
        <time>2022-03-02T10:39:31Z</time>
      </trkpt>
      <trkpt lat="44.773" lon="5.05608">
        <ele>559.62</ele>
        <time>2022-03-02T10:39:55Z</time>
      </trkpt>
      <trkpt lat="44.7731" lon="5.05615">
        <ele>559.62</ele>
        <time>2022-03-02T10:40:06Z</time>
      </trkpt>
      <trkpt lat="44.7733" lon="5.05629">
        <ele>558.66</ele>
        <time>2022-03-02T10:40:28Z</time>
      </trkpt>
      <trkpt lat="44.77351" lon="5.05643">
        <ele>557.7</ele>
        <time>2022-03-02T10:40:52Z</time>
      </trkpt>
      <trkpt lat="44.77369" lon="5.05665">
        <ele>556.74</ele>
        <time>2022-03-02T10:41:21Z</time>
      </trkpt>
      <trkpt lat="44.77386" lon="5.057">
        <ele>555.78</ele>
        <time>2022-03-02T10:41:52Z</time>
      </trkpt>
      <trkpt lat="44.77393" lon="5.05744">
        <ele>552.9</ele>
        <time>2022-03-02T10:42:20Z</time>
      </trkpt>
      <trkpt lat="44.77396" lon="5.0575">
        <ele>552.9</ele>
        <time>2022-03-02T10:42:26Z</time>
      </trkpt>
      <trkpt lat="44.77403" lon="5.05762">
        <ele>552.41</ele>
        <time>2022-03-02T10:42:41Z</time>
      </trkpt>
      <trkpt lat="44.77407" lon="5.05771">
        <ele>552.41</ele>
        <time>2022-03-02T10:43:04Z</time>
      </trkpt>
      <trkpt lat="44.77419" lon="5.0579">
        <ele>551.93</ele>
        <time>2022-03-02T10:43:29Z</time>
      </trkpt>
      <trkpt lat="44.77436" lon="5.05818">
        <ele>550.97</ele>
        <time>2022-03-02T10:43:58Z</time>
      </trkpt>
      <trkpt lat="44.77452" lon="5.05843">
        <ele>550.97</ele>
        <time>2022-03-02T10:44:21Z</time>
      </trkpt>
      <trkpt lat="44.77464" lon="5.0587">
        <ele>551.93</ele>
        <time>2022-03-02T10:44:45Z</time>
      </trkpt>
      <trkpt lat="44.77475" lon="5.05885">
        <ele>552.9</ele>
        <time>2022-03-02T10:45:01Z</time>
      </trkpt>
      <trkpt lat="44.77486" lon="5.05899">
        <ele>553.86</ele>
        <time>2022-03-02T10:45:17Z</time>
      </trkpt>
      <trkpt lat="44.775" lon="5.05922">
        <ele>556.74</ele>
        <time>2022-03-02T10:45:46Z</time>
      </trkpt>
      <trkpt lat="44.77504" lon="5.05956">
        <ele>558.66</ele>
        <time>2022-03-02T10:46:16Z</time>
      </trkpt>
      <trkpt lat="44.77506" lon="5.05982">
        <ele>561.55</ele>
        <time>2022-03-02T10:46:42Z</time>
      </trkpt>
      <trkpt lat="44.77512" lon="5.06007">
        <ele>564.43</ele>
        <time>2022-03-02T10:47:09Z</time>
      </trkpt>
      <trkpt lat="44.77516" lon="5.06028">
        <ele>567.8</ele>
        <time>2022-03-02T10:47:34Z</time>
      </trkpt>
      <trkpt lat="44.77522" lon="5.06048">
        <ele>570.68</ele>
        <time>2022-03-02T10:48:01Z</time>
      </trkpt>
      <trkpt lat="44.77527" lon="5.06067">
        <ele>573.56</ele>
        <time>2022-03-02T10:48:25Z</time>
      </trkpt>
      <trkpt lat="44.77527" lon="5.06087">
        <ele>576.45</ele>
        <time>2022-03-02T10:48:50Z</time>
      </trkpt>
      <trkpt lat="44.77525" lon="5.06105">
        <ele>579.81</ele>
        <time>2022-03-02T10:49:14Z</time>
      </trkpt>
      <trkpt lat="44.77526" lon="5.06118">
        <ele>582.7</ele>
        <time>2022-03-02T10:49:38Z</time>
      </trkpt>
      <trkpt lat="44.77523" lon="5.06133">
        <ele>585.58</ele>
        <time>2022-03-02T10:50:00Z</time>
      </trkpt>
      <trkpt lat="44.7752" lon="5.06148">
        <ele>588.46</ele>
        <time>2022-03-02T10:50:24Z</time>
      </trkpt>
      <trkpt lat="44.77518" lon="5.06164">
        <ele>591.83</ele>
        <time>2022-03-02T10:50:50Z</time>
      </trkpt>
      <trkpt lat="44.77517" lon="5.06179">
        <ele>594.71</ele>
        <time>2022-03-02T10:51:13Z</time>
      </trkpt>
      <trkpt lat="44.77513" lon="5.0619">
        <ele>597.6</ele>
        <time>2022-03-02T10:51:35Z</time>
      </trkpt>
      <trkpt lat="44.77508" lon="5.06204">
        <ele>600.48</ele>
        <time>2022-03-02T10:51:57Z</time>
      </trkpt>
      <trkpt lat="44.77503" lon="5.06216">
        <ele>603.36</ele>
        <time>2022-03-02T10:52:20Z</time>
      </trkpt>
      <trkpt lat="44.77498" lon="5.06226">
        <ele>606.25</ele>
        <time>2022-03-02T10:52:42Z</time>
      </trkpt>
      <trkpt lat="44.77494" lon="5.06239">
        <ele>609.13</ele>
        <time>2022-03-02T10:53:05Z</time>
      </trkpt>
      <trkpt lat="44.7749" lon="5.06253">
        <ele>612.02</ele>
        <time>2022-03-02T10:53:29Z</time>
      </trkpt>
      <trkpt lat="44.77489" lon="5.06275">
        <ele>615.38</ele>
        <time>2022-03-02T10:53:55Z</time>
      </trkpt>
      <trkpt lat="44.77487" lon="5.06306">
        <ele>617.78</ele>
        <time>2022-03-02T10:54:25Z</time>
      </trkpt>
      <trkpt lat="44.77494" lon="5.06335">
        <ele>619.23</ele>
        <time>2022-03-02T10:54:54Z</time>
      </trkpt>
      <trkpt lat="44.77499" lon="5.0637">
        <ele>618.75</ele>
        <time>2022-03-02T10:55:19Z</time>
      </trkpt>
      <trkpt lat="44.77496" lon="5.06383">
        <ele>618.75</ele>
        <time>2022-03-02T10:55:35Z</time>
      </trkpt>
      <trkpt lat="44.77494" lon="5.06391">
        <ele>618.75</ele>
        <time>2022-03-02T10:55:49Z</time>
      </trkpt>
      <trkpt lat="44.77495" lon="5.06388">
        <ele>619.23</ele>
        <time>2022-03-02T10:56:12Z</time>
      </trkpt>
      <trkpt lat="44.77496" lon="5.06382">
        <ele>619.23</ele>
        <time>2022-03-02T10:56:30Z</time>
      </trkpt>
      <trkpt lat="44.77496" lon="5.0638">
        <ele>619.23</ele>
        <time>2022-03-02T10:56:51Z</time>
      </trkpt>
      <trkpt lat="44.77494" lon="5.0638">
        <ele>619.23</ele>
        <time>2022-03-02T10:57:33Z</time>
      </trkpt>
      <trkpt lat="44.77491" lon="5.06372">
        <ele>619.23</ele>
        <time>2022-03-02T10:57:53Z</time>
      </trkpt>
      <trkpt lat="44.77491" lon="5.06372">
        <ele>619.23</ele>
        <time>2022-03-02T10:58:19Z</time>
      </trkpt>
      <trkpt lat="44.7749" lon="5.06372">
        <ele>619.23</ele>
        <time>2022-03-02T10:58:44Z</time>
      </trkpt>
      <trkpt lat="44.77491" lon="5.06371">
        <ele>619.23</ele>
        <time>2022-03-02T11:00:14Z</time>
      </trkpt>
      <trkpt lat="44.77492" lon="5.06372">
        <ele>619.23</ele>
        <time>2022-03-02T11:00:56Z</time>
      </trkpt>
      <trkpt lat="44.77493" lon="5.06373">
        <ele>619.23</ele>
        <time>2022-03-02T11:01:25Z</time>
      </trkpt>
      <trkpt lat="44.77494" lon="5.06373">
        <ele>619.23</ele>
        <time>2022-03-02T11:01:47Z</time>
      </trkpt>
      <trkpt lat="44.77494" lon="5.06372">
        <ele>619.23</ele>
        <time>2022-03-02T11:02:08Z</time>
      </trkpt>
      <trkpt lat="44.77494" lon="5.06372">
        <ele>619.23</ele>
        <time>2022-03-02T11:02:33Z</time>
      </trkpt>
      <trkpt lat="44.77494" lon="5.06372">
        <ele>619.23</ele>
        <time>2022-03-02T11:03:12Z</time>
      </trkpt>
      <trkpt lat="44.77495" lon="5.06372">
        <ele>619.23</ele>
        <time>2022-03-02T11:03:40Z</time>
      </trkpt>
      <trkpt lat="44.77496" lon="5.06373">
        <ele>619.23</ele>
        <time>2022-03-02T11:04:07Z</time>
      </trkpt>
      <trkpt lat="44.77496" lon="5.06373">
        <ele>619.23</ele>
        <time>2022-03-02T11:04:33Z</time>
      </trkpt>
      <trkpt lat="44.77496" lon="5.06373">
        <ele>619.23</ele>
        <time>2022-03-02T11:04:58Z</time>
      </trkpt>
      <trkpt lat="44.77497" lon="5.06371">
        <ele>619.23</ele>
        <time>2022-03-02T11:05:25Z</time>
      </trkpt>
      <trkpt lat="44.77497" lon="5.0637">
        <ele>619.23</ele>
        <time>2022-03-02T11:05:55Z</time>
      </trkpt>
      <trkpt lat="44.77497" lon="5.0637">
        <ele>619.23</ele>
        <time>2022-03-02T11:06:20Z</time>
      </trkpt>
      <trkpt lat="44.77498" lon="5.0637">
        <ele>619.23</ele>
        <time>2022-03-02T11:06:48Z</time>
      </trkpt>
      <trkpt lat="44.77498" lon="5.0637">
        <ele>619.23</ele>
        <time>2022-03-02T11:07:19Z</time>
      </trkpt>
      <trkpt lat="44.77499" lon="5.0637">
        <ele>619.23</ele>
        <time>2022-03-02T11:07:54Z</time>
      </trkpt>
      <trkpt lat="44.77499" lon="5.06371">
        <ele>619.23</ele>
        <time>2022-03-02T11:08:17Z</time>
      </trkpt>
      <trkpt lat="44.77499" lon="5.06371">
        <ele>619.23</ele>
        <time>2022-03-02T11:08:45Z</time>
      </trkpt>
      <trkpt lat="44.775" lon="5.06371">
        <ele>619.23</ele>
        <time>2022-03-02T11:09:20Z</time>
      </trkpt>
      <trkpt lat="44.77501" lon="5.06371">
        <ele>619.23</ele>
        <time>2022-03-02T11:09:46Z</time>
      </trkpt>
      <trkpt lat="44.77501" lon="5.06371">
        <ele>619.23</ele>
        <time>2022-03-02T11:10:10Z</time>
      </trkpt>
      <trkpt lat="44.77501" lon="5.06371">
        <ele>619.23</ele>
        <time>2022-03-02T11:10:45Z</time>
      </trkpt>
      <trkpt lat="44.77502" lon="5.06371">
        <ele>619.23</ele>
        <time>2022-03-02T11:11:20Z</time>
      </trkpt>
      <trkpt lat="44.77502" lon="5.06371">
        <ele>619.23</ele>
        <time>2022-03-02T11:11:48Z</time>
      </trkpt>
      <trkpt lat="44.77503" lon="5.06371">
        <ele>619.23</ele>
        <time>2022-03-02T11:12:15Z</time>
      </trkpt>
      <trkpt lat="44.77503" lon="5.06371">
        <ele>619.23</ele>
        <time>2022-03-02T11:12:42Z</time>
      </trkpt>
      <trkpt lat="44.77503" lon="5.0637">
        <ele>619.23</ele>
        <time>2022-03-02T11:13:14Z</time>
      </trkpt>
      <trkpt lat="44.77501" lon="5.0637">
        <ele>619.23</ele>
        <time>2022-03-02T11:13:38Z</time>
      </trkpt>
      <trkpt lat="44.77502" lon="5.0637">
        <ele>619.23</ele>
        <time>2022-03-02T11:14:05Z</time>
      </trkpt>
      <trkpt lat="44.77504" lon="5.06368">
        <ele>619.23</ele>
        <time>2022-03-02T11:14:36Z</time>
      </trkpt>
      <trkpt lat="44.77503" lon="5.06367">
        <ele>619.23</ele>
        <time>2022-03-02T11:15:09Z</time>
      </trkpt>
      <trkpt lat="44.77503" lon="5.06367">
        <ele>619.23</ele>
        <time>2022-03-02T11:15:35Z</time>
      </trkpt>
      <trkpt lat="44.77502" lon="5.06367">
        <ele>619.23</ele>
        <time>2022-03-02T11:15:55Z</time>
      </trkpt>
      <trkpt lat="44.77502" lon="5.06367">
        <ele>619.23</ele>
        <time>2022-03-02T11:16:20Z</time>
      </trkpt>
      <trkpt lat="44.77502" lon="5.06368">
        <ele>619.23</ele>
        <time>2022-03-02T11:16:47Z</time>
      </trkpt>
      <trkpt lat="44.77503" lon="5.06369">
        <ele>619.23</ele>
        <time>2022-03-02T11:17:16Z</time>
      </trkpt>
      <trkpt lat="44.77504" lon="5.06369">
        <ele>619.23</ele>
        <time>2022-03-02T11:17:42Z</time>
      </trkpt>
      <trkpt lat="44.77504" lon="5.06368">
        <ele>619.23</ele>
        <time>2022-03-02T11:18:15Z</time>
      </trkpt>
      <trkpt lat="44.77504" lon="5.06368">
        <ele>619.23</ele>
        <time>2022-03-02T11:18:45Z</time>
      </trkpt>
      <trkpt lat="44.77504" lon="5.06369">
        <ele>619.23</ele>
        <time>2022-03-02T11:19:16Z</time>
      </trkpt>
      <trkpt lat="44.77503" lon="5.0637">
        <ele>619.23</ele>
        <time>2022-03-02T11:19:40Z</time>
      </trkpt>
      <trkpt lat="44.77501" lon="5.0637">
        <ele>619.23</ele>
        <time>2022-03-02T11:20:12Z</time>
      </trkpt>
      <trkpt lat="44.775" lon="5.06369">
        <ele>619.23</ele>
        <time>2022-03-02T11:20:39Z</time>
      </trkpt>
      <trkpt lat="44.77501" lon="5.06369">
        <ele>619.23</ele>
        <time>2022-03-02T11:21:05Z</time>
      </trkpt>
      <trkpt lat="44.77501" lon="5.06369">
        <ele>619.23</ele>
        <time>2022-03-02T11:21:31Z</time>
      </trkpt>
      <trkpt lat="44.775" lon="5.06369">
        <ele>619.23</ele>
        <time>2022-03-02T11:21:50Z</time>
      </trkpt>
      <trkpt lat="44.775" lon="5.06369">
        <ele>619.23</ele>
        <time>2022-03-02T11:22:13Z</time>
      </trkpt>
      <trkpt lat="44.775" lon="5.06369">
        <ele>619.23</ele>
        <time>2022-03-02T11:22:40Z</time>
      </trkpt>
      <trkpt lat="44.77502" lon="5.06367">
        <ele>619.23</ele>
        <time>2022-03-02T11:23:11Z</time>
      </trkpt>
      <trkpt lat="44.77502" lon="5.06368">
        <ele>619.23</ele>
        <time>2022-03-02T11:23:40Z</time>
      </trkpt>
      <trkpt lat="44.77502" lon="5.06369">
        <ele>619.23</ele>
        <time>2022-03-02T11:24:09Z</time>
      </trkpt>
      <trkpt lat="44.77502" lon="5.06369">
        <ele>619.23</ele>
        <time>2022-03-02T11:24:48Z</time>
      </trkpt>
      <trkpt lat="44.77501" lon="5.06369">
        <ele>619.23</ele>
        <time>2022-03-02T11:25:38Z</time>
      </trkpt>
      <trkpt lat="44.77501" lon="5.06369">
        <ele>619.23</ele>
        <time>2022-03-02T11:26:16Z</time>
      </trkpt>
      <trkpt lat="44.775" lon="5.06369">
        <ele>619.23</ele>
        <time>2022-03-02T11:27:20Z</time>
      </trkpt>
      <trkpt lat="44.775" lon="5.0637">
        <ele>619.23</ele>
        <time>2022-03-02T11:28:23Z</time>
      </trkpt>
      <trkpt lat="44.775" lon="5.0637">
        <ele>619.23</ele>
        <time>2022-03-02T11:29:21Z</time>
      </trkpt>
      <trkpt lat="44.775" lon="5.0637">
        <ele>619.23</ele>
        <time>2022-03-02T11:30:24Z</time>
      </trkpt>
      <trkpt lat="44.775" lon="5.0637">
        <ele>619.23</ele>
        <time>2022-03-02T11:30:59Z</time>
      </trkpt>
      <trkpt lat="44.77498" lon="5.06371">
        <ele>619.23</ele>
        <time>2022-03-02T11:32:29Z</time>
      </trkpt>
      <trkpt lat="44.77497" lon="5.06371">
        <ele>619.23</ele>
        <time>2022-03-02T11:32:49Z</time>
      </trkpt>
      <trkpt lat="44.77496" lon="5.06372">
        <ele>619.23</ele>
        <time>2022-03-02T11:33:11Z</time>
      </trkpt>
      <trkpt lat="44.77495" lon="5.06377">
        <ele>619.23</ele>
        <time>2022-03-02T11:33:27Z</time>
      </trkpt>
      <trkpt lat="44.77495" lon="5.06377">
        <ele>619.23</ele>
        <time>2022-03-02T11:33:51Z</time>
      </trkpt>
      <trkpt lat="44.77495" lon="5.06378">
        <ele>619.23</ele>
        <time>2022-03-02T11:34:16Z</time>
      </trkpt>
      <trkpt lat="44.77495" lon="5.06378">
        <ele>619.23</ele>
        <time>2022-03-02T11:34:49Z</time>
      </trkpt>
      <trkpt lat="44.77497" lon="5.06378">
        <ele>619.23</ele>
        <time>2022-03-02T11:35:37Z</time>
      </trkpt>
      <trkpt lat="44.77497" lon="5.06378">
        <ele>619.23</ele>
        <time>2022-03-02T11:36:05Z</time>
      </trkpt>
      <trkpt lat="44.77497" lon="5.06378">
        <ele>619.23</ele>
        <time>2022-03-02T11:36:54Z</time>
      </trkpt>
      <trkpt lat="44.77496" lon="5.06378">
        <ele>619.23</ele>
        <time>2022-03-02T11:37:35Z</time>
      </trkpt>
      <trkpt lat="44.77497" lon="5.06378">
        <ele>619.23</ele>
        <time>2022-03-02T11:38:05Z</time>
      </trkpt>
      <trkpt lat="44.77496" lon="5.06379">
        <ele>619.23</ele>
        <time>2022-03-02T11:38:34Z</time>
      </trkpt>
      <trkpt lat="44.77496" lon="5.06379">
        <ele>619.23</ele>
        <time>2022-03-02T11:39:01Z</time>
      </trkpt>
      <trkpt lat="44.77496" lon="5.06379">
        <ele>619.23</ele>
        <time>2022-03-02T11:39:30Z</time>
      </trkpt>
      <trkpt lat="44.77495" lon="5.0638">
        <ele>619.23</ele>
        <time>2022-03-02T11:39:50Z</time>
      </trkpt>
      <trkpt lat="44.77494" lon="5.06379">
        <ele>619.23</ele>
        <time>2022-03-02T11:40:16Z</time>
      </trkpt>
      <trkpt lat="44.77493" lon="5.0638">
        <ele>619.23</ele>
        <time>2022-03-02T11:40:40Z</time>
      </trkpt>
      <trkpt lat="44.77491" lon="5.06373">
        <ele>619.23</ele>
        <time>2022-03-02T11:40:58Z</time>
      </trkpt>
      <trkpt lat="44.77482" lon="5.06357">
        <ele>619.23</ele>
        <time>2022-03-02T11:41:17Z</time>
      </trkpt>
      <trkpt lat="44.77469" lon="5.06347">
        <ele>619.23</ele>
        <time>2022-03-02T11:41:37Z</time>
      </trkpt>
      <trkpt lat="44.77467" lon="5.06346">
        <ele>619.23</ele>
        <time>2022-03-02T11:41:40Z</time>
      </trkpt>
      <trkpt lat="44.77462" lon="5.06342">
        <ele>622.59</ele>
        <time>2022-03-02T11:41:46Z</time>
      </trkpt>
      <trkpt lat="44.77446" lon="5.06332">
        <ele>622.11</ele>
        <time>2022-03-02T11:42:06Z</time>
      </trkpt>
      <trkpt lat="44.77443" lon="5.06328">
        <ele>621.63</ele>
        <time>2022-03-02T11:42:10Z</time>
      </trkpt>
      <trkpt lat="44.77438" lon="5.06323">
        <ele>621.63</ele>
        <time>2022-03-02T11:42:16Z</time>
      </trkpt>
      <trkpt lat="44.77434" lon="5.06321">
        <ele>621.63</ele>
        <time>2022-03-02T11:42:21Z</time>
      </trkpt>
      <trkpt lat="44.77417" lon="5.06323">
        <ele>621.15</ele>
        <time>2022-03-02T11:42:39Z</time>
      </trkpt>
      <trkpt lat="44.77403" lon="5.06324">
        <ele>618.26</ele>
        <time>2022-03-02T11:42:58Z</time>
      </trkpt>
      <trkpt lat="44.77397" lon="5.06326">
        <ele>617.3</ele>
        <time>2022-03-02T11:43:06Z</time>
      </trkpt>
      <trkpt lat="44.77396" lon="5.06326">
        <ele>617.3</ele>
        <time>2022-03-02T11:43:07Z</time>
      </trkpt>
      <trkpt lat="44.77381" lon="5.06321">
        <ele>614.42</ele>
        <time>2022-03-02T11:43:26Z</time>
      </trkpt>
      <trkpt lat="44.77367" lon="5.06315">
        <ele>612.02</ele>
        <time>2022-03-02T11:43:45Z</time>
      </trkpt>
      <trkpt lat="44.77349" lon="5.06311">
        <ele>609.61</ele>
        <time>2022-03-02T11:44:09Z</time>
      </trkpt>
      <trkpt lat="44.77342" lon="5.0631">
        <ele>609.13</ele>
        <time>2022-03-02T11:44:17Z</time>
      </trkpt>
      <trkpt lat="44.77331" lon="5.06309">
        <ele>608.17</ele>
        <time>2022-03-02T11:44:31Z</time>
      </trkpt>
      <trkpt lat="44.77317" lon="5.06307">
        <ele>607.21</ele>
        <time>2022-03-02T11:44:48Z</time>
      </trkpt>
      <trkpt lat="44.773" lon="5.06303">
        <ele>606.73</ele>
        <time>2022-03-02T11:45:07Z</time>
      </trkpt>
      <trkpt lat="44.77281" lon="5.06301">
        <ele>605.77</ele>
        <time>2022-03-02T11:45:27Z</time>
      </trkpt>
      <trkpt lat="44.77269" lon="5.06297">
        <ele>605.29</ele>
        <time>2022-03-02T11:45:43Z</time>
      </trkpt>
      <trkpt lat="44.77254" lon="5.06302">
        <ele>602.88</ele>
        <time>2022-03-02T11:46:03Z</time>
      </trkpt>
      <trkpt lat="44.77247" lon="5.06305">
        <ele>601.44</ele>
        <time>2022-03-02T11:46:11Z</time>
      </trkpt>
      <trkpt lat="44.77234" lon="5.06314">
        <ele>600</ele>
        <time>2022-03-02T11:46:28Z</time>
      </trkpt>
      <trkpt lat="44.77219" lon="5.06319">
        <ele>599.04</ele>
        <time>2022-03-02T11:46:45Z</time>
      </trkpt>
      <trkpt lat="44.77203" lon="5.06319">
        <ele>598.56</ele>
        <time>2022-03-02T11:47:03Z</time>
      </trkpt>
      <trkpt lat="44.77186" lon="5.06323">
        <ele>597.12</ele>
        <time>2022-03-02T11:47:23Z</time>
      </trkpt>
      <trkpt lat="44.77179" lon="5.06324">
        <ele>597.12</ele>
        <time>2022-03-02T11:47:31Z</time>
      </trkpt>
      <trkpt lat="44.77166" lon="5.06326">
        <ele>596.64</ele>
        <time>2022-03-02T11:47:46Z</time>
      </trkpt>
      <trkpt lat="44.77147" lon="5.06326">
        <ele>595.19</ele>
        <time>2022-03-02T11:48:05Z</time>
      </trkpt>
      <trkpt lat="44.77136" lon="5.06324">
        <ele>594.71</ele>
        <time>2022-03-02T11:48:17Z</time>
      </trkpt>
      <trkpt lat="44.77125" lon="5.06319">
        <ele>594.23</ele>
        <time>2022-03-02T11:48:32Z</time>
      </trkpt>
      <trkpt lat="44.77117" lon="5.06316">
        <ele>594.23</ele>
        <time>2022-03-02T11:48:40Z</time>
      </trkpt>
      <trkpt lat="44.77116" lon="5.06315">
        <ele>594.23</ele>
        <time>2022-03-02T11:48:41Z</time>
      </trkpt>
      <trkpt lat="44.77115" lon="5.06314">
        <ele>594.23</ele>
        <time>2022-03-02T11:48:42Z</time>
      </trkpt>
      <trkpt lat="44.77105" lon="5.06308">
        <ele>593.75</ele>
        <time>2022-03-02T11:48:53Z</time>
      </trkpt>
      <trkpt lat="44.77088" lon="5.06304">
        <ele>593.27</ele>
        <time>2022-03-02T11:49:10Z</time>
      </trkpt>
      <trkpt lat="44.77077" lon="5.06291">
        <ele>592.79</ele>
        <time>2022-03-02T11:49:24Z</time>
      </trkpt>
      <trkpt lat="44.77064" lon="5.06286">
        <ele>591.83</ele>
        <time>2022-03-02T11:49:42Z</time>
      </trkpt>
      <trkpt lat="44.77058" lon="5.06286">
        <ele>590.39</ele>
        <time>2022-03-02T11:49:58Z</time>
      </trkpt>
      <trkpt lat="44.77054" lon="5.06286">
        <ele>590.39</ele>
        <time>2022-03-02T11:50:01Z</time>
      </trkpt>
      <trkpt lat="44.77036" lon="5.0628">
        <ele>589.43</ele>
        <time>2022-03-02T11:50:17Z</time>
      </trkpt>
      <trkpt lat="44.77024" lon="5.06277">
        <ele>588.95</ele>
        <time>2022-03-02T11:50:29Z</time>
      </trkpt>
      <trkpt lat="44.77009" lon="5.06266">
        <ele>587.98</ele>
        <time>2022-03-02T11:50:48Z</time>
      </trkpt>
      <trkpt lat="44.77007" lon="5.06263">
        <ele>587.98</ele>
        <time>2022-03-02T11:50:51Z</time>
      </trkpt>
      <trkpt lat="44.76997" lon="5.06251">
        <ele>586.54</ele>
        <time>2022-03-02T11:51:08Z</time>
      </trkpt>
      <trkpt lat="44.76997" lon="5.0625">
        <ele>586.54</ele>
        <time>2022-03-02T11:51:09Z</time>
      </trkpt>
      <trkpt lat="44.76996" lon="5.06249">
        <ele>586.54</ele>
        <time>2022-03-02T11:51:10Z</time>
      </trkpt>
      <trkpt lat="44.76995" lon="5.06248">
        <ele>586.06</ele>
        <time>2022-03-02T11:51:11Z</time>
      </trkpt>
      <trkpt lat="44.76981" lon="5.06232">
        <ele>584.62</ele>
        <time>2022-03-02T11:51:30Z</time>
      </trkpt>
      <trkpt lat="44.76974" lon="5.06225">
        <ele>584.14</ele>
        <time>2022-03-02T11:51:39Z</time>
      </trkpt>
      <trkpt lat="44.76972" lon="5.06225">
        <ele>583.66</ele>
        <time>2022-03-02T11:51:40Z</time>
      </trkpt>
      <trkpt lat="44.76973" lon="5.06222">
        <ele>583.66</ele>
        <time>2022-03-02T11:51:41Z</time>
      </trkpt>
      <trkpt lat="44.76965" lon="5.06203">
        <ele>583.18</ele>
        <time>2022-03-02T11:51:58Z</time>
      </trkpt>
      <trkpt lat="44.76958" lon="5.06184">
        <ele>582.22</ele>
        <time>2022-03-02T11:52:15Z</time>
      </trkpt>
      <trkpt lat="44.76949" lon="5.06167">
        <ele>580.77</ele>
        <time>2022-03-02T11:52:35Z</time>
      </trkpt>
      <trkpt lat="44.76945" lon="5.06163">
        <ele>579.81</ele>
        <time>2022-03-02T11:52:42Z</time>
      </trkpt>
      <trkpt lat="44.76932" lon="5.06158">
        <ele>578.37</ele>
        <time>2022-03-02T11:52:57Z</time>
      </trkpt>
      <trkpt lat="44.76919" lon="5.06159">
        <ele>577.41</ele>
        <time>2022-03-02T11:53:14Z</time>
      </trkpt>
      <trkpt lat="44.76903" lon="5.06159">
        <ele>576.45</ele>
        <time>2022-03-02T11:53:32Z</time>
      </trkpt>
      <trkpt lat="44.76884" lon="5.06155">
        <ele>577.41</ele>
        <time>2022-03-02T11:53:53Z</time>
      </trkpt>
      <trkpt lat="44.76876" lon="5.06152">
        <ele>576.93</ele>
        <time>2022-03-02T11:54:01Z</time>
      </trkpt>
      <trkpt lat="44.76858" lon="5.06149">
        <ele>575.49</ele>
        <time>2022-03-02T11:54:18Z</time>
      </trkpt>
      <trkpt lat="44.76845" lon="5.06149">
        <ele>574.04</ele>
        <time>2022-03-02T11:54:33Z</time>
      </trkpt>
      <trkpt lat="44.76833" lon="5.06144">
        <ele>572.6</ele>
        <time>2022-03-02T11:54:51Z</time>
      </trkpt>
      <trkpt lat="44.76824" lon="5.06139">
        <ele>571.64</ele>
        <time>2022-03-02T11:55:07Z</time>
      </trkpt>
      <trkpt lat="44.76822" lon="5.06139">
        <ele>571.16</ele>
        <time>2022-03-02T11:55:27Z</time>
      </trkpt>
      <trkpt lat="44.7682" lon="5.0614">
        <ele>570.68</ele>
        <time>2022-03-02T11:55:45Z</time>
      </trkpt>
      <trkpt lat="44.76815" lon="5.06141">
        <ele>570.2</ele>
        <time>2022-03-02T11:56:09Z</time>
      </trkpt>
      <trkpt lat="44.76814" lon="5.06141">
        <ele>570.2</ele>
        <time>2022-03-02T11:56:32Z</time>
      </trkpt>
      <trkpt lat="44.76811" lon="5.06142">
        <ele>570.2</ele>
        <time>2022-03-02T11:57:07Z</time>
      </trkpt>
      <trkpt lat="44.76797" lon="5.06146">
        <ele>567.32</ele>
        <time>2022-03-02T11:57:22Z</time>
      </trkpt>
      <trkpt lat="44.76783" lon="5.06151">
        <ele>564.43</ele>
        <time>2022-03-02T11:57:39Z</time>
      </trkpt>
      <trkpt lat="44.76776" lon="5.06153">
        <ele>562.51</ele>
        <time>2022-03-02T11:57:48Z</time>
      </trkpt>
      <trkpt lat="44.76775" lon="5.06154">
        <ele>562.03</ele>
        <time>2022-03-02T11:57:49Z</time>
      </trkpt>
      <trkpt lat="44.76764" lon="5.0616">
        <ele>559.14</ele>
        <time>2022-03-02T11:58:03Z</time>
      </trkpt>
      <trkpt lat="44.76759" lon="5.06163">
        <ele>558.18</ele>
        <time>2022-03-02T11:58:08Z</time>
      </trkpt>
      <trkpt lat="44.7674" lon="5.06173">
        <ele>554.82</ele>
        <time>2022-03-02T11:58:25Z</time>
      </trkpt>
      <trkpt lat="44.76731" lon="5.06173">
        <ele>553.38</ele>
        <time>2022-03-02T11:58:33Z</time>
      </trkpt>
      <trkpt lat="44.76723" lon="5.06176">
        <ele>552.41</ele>
        <time>2022-03-02T11:58:40Z</time>
      </trkpt>
      <trkpt lat="44.76722" lon="5.06177">
        <ele>552.41</ele>
        <time>2022-03-02T11:58:41Z</time>
      </trkpt>
      <trkpt lat="44.76721" lon="5.06178">
        <ele>551.93</ele>
        <time>2022-03-02T11:58:42Z</time>
      </trkpt>
      <trkpt lat="44.76712" lon="5.06178">
        <ele>550.49</ele>
        <time>2022-03-02T11:58:57Z</time>
      </trkpt>
      <trkpt lat="44.76711" lon="5.06177">
        <ele>550.49</ele>
        <time>2022-03-02T11:59:18Z</time>
      </trkpt>
      <trkpt lat="44.76709" lon="5.06177">
        <ele>550.01</ele>
        <time>2022-03-02T11:59:41Z</time>
      </trkpt>
      <trkpt lat="44.76698" lon="5.06178">
        <ele>549.05</ele>
        <time>2022-03-02T11:59:57Z</time>
      </trkpt>
      <trkpt lat="44.76682" lon="5.06179">
        <ele>548.09</ele>
        <time>2022-03-02T12:00:14Z</time>
      </trkpt>
      <trkpt lat="44.76663" lon="5.06176">
        <ele>547.61</ele>
        <time>2022-03-02T12:00:32Z</time>
      </trkpt>
      <trkpt lat="44.76644" lon="5.06178">
        <ele>547.13</ele>
        <time>2022-03-02T12:00:52Z</time>
      </trkpt>
      <trkpt lat="44.76633" lon="5.06176">
        <ele>547.13</ele>
        <time>2022-03-02T12:01:04Z</time>
      </trkpt>
      <trkpt lat="44.76631" lon="5.06176">
        <ele>547.13</ele>
        <time>2022-03-02T12:01:05Z</time>
      </trkpt>
      <trkpt lat="44.7663" lon="5.06176">
        <ele>547.13</ele>
        <time>2022-03-02T12:01:06Z</time>
      </trkpt>
      <trkpt lat="44.76616" lon="5.06176">
        <ele>546.65</ele>
        <time>2022-03-02T12:01:20Z</time>
      </trkpt>
      <trkpt lat="44.76605" lon="5.06173">
        <ele>546.65</ele>
        <time>2022-03-02T12:01:30Z</time>
      </trkpt>
      <trkpt lat="44.76602" lon="5.06172">
        <ele>546.17</ele>
        <time>2022-03-02T12:01:33Z</time>
      </trkpt>
      <trkpt lat="44.76601" lon="5.06172">
        <ele>546.17</ele>
        <time>2022-03-02T12:01:34Z</time>
      </trkpt>
      <trkpt lat="44.76582" lon="5.0617">
        <ele>546.17</ele>
        <time>2022-03-02T12:01:51Z</time>
      </trkpt>
      <trkpt lat="44.76568" lon="5.06172">
        <ele>545.2</ele>
        <time>2022-03-02T12:02:06Z</time>
      </trkpt>
      <trkpt lat="44.76554" lon="5.06168">
        <ele>544.24</ele>
        <time>2022-03-02T12:02:25Z</time>
      </trkpt>
      <trkpt lat="44.76543" lon="5.0616">
        <ele>541.84</ele>
        <time>2022-03-02T12:02:41Z</time>
      </trkpt>
      <trkpt lat="44.76531" lon="5.06154">
        <ele>538.96</ele>
        <time>2022-03-02T12:02:58Z</time>
      </trkpt>
      <trkpt lat="44.7652" lon="5.06149">
        <ele>536.55</ele>
        <time>2022-03-02T12:03:15Z</time>
      </trkpt>
      <trkpt lat="44.76506" lon="5.06137">
        <ele>533.67</ele>
        <time>2022-03-02T12:03:35Z</time>
      </trkpt>
      <trkpt lat="44.76496" lon="5.06129">
        <ele>531.75</ele>
        <time>2022-03-02T12:03:48Z</time>
      </trkpt>
      <trkpt lat="44.76495" lon="5.06128">
        <ele>531.27</ele>
        <time>2022-03-02T12:03:49Z</time>
      </trkpt>
      <trkpt lat="44.76494" lon="5.06127">
        <ele>531.27</ele>
        <time>2022-03-02T12:03:50Z</time>
      </trkpt>
      <trkpt lat="44.76479" lon="5.06117">
        <ele>529.82</ele>
        <time>2022-03-02T12:04:06Z</time>
      </trkpt>
      <trkpt lat="44.76463" lon="5.06106">
        <ele>528.86</ele>
        <time>2022-03-02T12:04:22Z</time>
      </trkpt>
      <trkpt lat="44.76449" lon="5.06096">
        <ele>527.42</ele>
        <time>2022-03-02T12:04:38Z</time>
      </trkpt>
      <trkpt lat="44.7644" lon="5.06091">
        <ele>525.5</ele>
        <time>2022-03-02T12:04:55Z</time>
      </trkpt>
      <trkpt lat="44.76439" lon="5.06091">
        <ele>525.02</ele>
        <time>2022-03-02T12:05:18Z</time>
      </trkpt>
      <trkpt lat="44.76438" lon="5.06091">
        <ele>525.5</ele>
        <time>2022-03-02T12:05:47Z</time>
      </trkpt>
      <trkpt lat="44.76437" lon="5.06092">
        <ele>525.02</ele>
        <time>2022-03-02T12:06:32Z</time>
      </trkpt>
      <trkpt lat="44.76429" lon="5.06091">
        <ele>524.54</ele>
        <time>2022-03-02T12:06:56Z</time>
      </trkpt>
      <trkpt lat="44.76422" lon="5.06088">
        <ele>523.58</ele>
        <time>2022-03-02T12:07:03Z</time>
      </trkpt>
      <trkpt lat="44.76421" lon="5.06088">
        <ele>523.58</ele>
        <time>2022-03-02T12:07:04Z</time>
      </trkpt>
      <trkpt lat="44.76403" lon="5.06081">
        <ele>522.61</ele>
        <time>2022-03-02T12:07:21Z</time>
      </trkpt>
      <trkpt lat="44.76385" lon="5.06076">
        <ele>521.17</ele>
        <time>2022-03-02T12:07:38Z</time>
      </trkpt>
      <trkpt lat="44.76368" lon="5.06077">
        <ele>519.73</ele>
        <time>2022-03-02T12:07:56Z</time>
      </trkpt>
      <trkpt lat="44.76349" lon="5.06075">
        <ele>517.81</ele>
        <time>2022-03-02T12:08:16Z</time>
      </trkpt>
      <trkpt lat="44.76331" lon="5.06077">
        <ele>515.4</ele>
        <time>2022-03-02T12:08:34Z</time>
      </trkpt>
      <trkpt lat="44.76316" lon="5.06081">
        <ele>512.52</ele>
        <time>2022-03-02T12:08:52Z</time>
      </trkpt>
      <trkpt lat="44.76301" lon="5.06086">
        <ele>509.64</ele>
        <time>2022-03-02T12:09:09Z</time>
      </trkpt>
      <trkpt lat="44.76288" lon="5.06091">
        <ele>506.75</ele>
        <time>2022-03-02T12:09:25Z</time>
      </trkpt>
      <trkpt lat="44.76273" lon="5.06096">
        <ele>503.39</ele>
        <time>2022-03-02T12:09:43Z</time>
      </trkpt>
      <trkpt lat="44.76258" lon="5.06102">
        <ele>500.5</ele>
        <time>2022-03-02T12:10:01Z</time>
      </trkpt>
      <trkpt lat="44.76252" lon="5.06104">
        <ele>499.54</ele>
        <time>2022-03-02T12:10:08Z</time>
      </trkpt>
      <trkpt lat="44.76243" lon="5.06108">
        <ele>498.1</ele>
        <time>2022-03-02T12:10:17Z</time>
      </trkpt>
      <trkpt lat="44.76242" lon="5.06109">
        <ele>498.1</ele>
        <time>2022-03-02T12:10:18Z</time>
      </trkpt>
      <trkpt lat="44.76226" lon="5.06114">
        <ele>495.7</ele>
        <time>2022-03-02T12:10:35Z</time>
      </trkpt>
      <trkpt lat="44.76207" lon="5.06121">
        <ele>492.81</ele>
        <time>2022-03-02T12:10:54Z</time>
      </trkpt>
      <trkpt lat="44.7619" lon="5.06128">
        <ele>490.41</ele>
        <time>2022-03-02T12:11:11Z</time>
      </trkpt>
      <trkpt lat="44.76171" lon="5.06137">
        <ele>488.01</ele>
        <time>2022-03-02T12:11:31Z</time>
      </trkpt>
      <trkpt lat="44.76152" lon="5.06144">
        <ele>486.08</ele>
        <time>2022-03-02T12:11:50Z</time>
      </trkpt>
      <trkpt lat="44.76135" lon="5.06146">
        <ele>484.64</ele>
        <time>2022-03-02T12:12:08Z</time>
      </trkpt>
      <trkpt lat="44.76116" lon="5.06151">
        <ele>482.72</ele>
        <time>2022-03-02T12:12:27Z</time>
      </trkpt>
      <trkpt lat="44.76108" lon="5.06155">
        <ele>482.24</ele>
        <time>2022-03-02T12:12:45Z</time>
      </trkpt>
      <trkpt lat="44.76104" lon="5.06159">
        <ele>481.76</ele>
        <time>2022-03-02T12:12:56Z</time>
      </trkpt>
      <trkpt lat="44.76103" lon="5.06159">
        <ele>481.76</ele>
        <time>2022-03-02T12:13:17Z</time>
      </trkpt>
      <trkpt lat="44.76102" lon="5.06156">
        <ele>481.28</ele>
        <time>2022-03-02T12:13:35Z</time>
      </trkpt>
      <trkpt lat="44.76102" lon="5.06156">
        <ele>481.28</ele>
        <time>2022-03-02T12:14:06Z</time>
      </trkpt>
      <trkpt lat="44.76099" lon="5.06157">
        <ele>481.28</ele>
        <time>2022-03-02T12:14:17Z</time>
      </trkpt>
      <trkpt lat="44.76098" lon="5.06158">
        <ele>481.28</ele>
        <time>2022-03-02T12:14:18Z</time>
      </trkpt>
      <trkpt lat="44.76096" lon="5.06158">
        <ele>481.28</ele>
        <time>2022-03-02T12:14:19Z</time>
      </trkpt>
      <trkpt lat="44.76079" lon="5.06164">
        <ele>481.76</ele>
        <time>2022-03-02T12:14:37Z</time>
      </trkpt>
      <trkpt lat="44.76061" lon="5.06167">
        <ele>481.76</ele>
        <time>2022-03-02T12:14:55Z</time>
      </trkpt>
      <trkpt lat="44.76045" lon="5.06165">
        <ele>481.76</ele>
        <time>2022-03-02T12:15:11Z</time>
      </trkpt>
      <trkpt lat="44.76036" lon="5.06164">
        <ele>482.24</ele>
        <time>2022-03-02T12:15:22Z</time>
      </trkpt>
      <trkpt lat="44.76034" lon="5.06164">
        <ele>482.24</ele>
        <time>2022-03-02T12:15:24Z</time>
      </trkpt>
      <trkpt lat="44.7602" lon="5.06168">
        <ele>483.2</ele>
        <time>2022-03-02T12:15:40Z</time>
      </trkpt>
      <trkpt lat="44.76019" lon="5.06168">
        <ele>483.2</ele>
        <time>2022-03-02T12:15:41Z</time>
      </trkpt>
      <trkpt lat="44.76005" lon="5.0617">
        <ele>483.68</ele>
        <time>2022-03-02T12:15:55Z</time>
      </trkpt>
      <trkpt lat="44.75984" lon="5.06172">
        <ele>483.68</ele>
        <time>2022-03-02T12:16:14Z</time>
      </trkpt>
      <trkpt lat="44.75967" lon="5.06178">
        <ele>483.68</ele>
        <time>2022-03-02T12:16:31Z</time>
      </trkpt>
      <trkpt lat="44.75949" lon="5.06188">
        <ele>483.2</ele>
        <time>2022-03-02T12:16:48Z</time>
      </trkpt>
      <trkpt lat="44.75929" lon="5.0619">
        <ele>482.24</ele>
        <time>2022-03-02T12:17:06Z</time>
      </trkpt>
      <trkpt lat="44.75909" lon="5.06194">
        <ele>482.24</ele>
        <time>2022-03-02T12:17:24Z</time>
      </trkpt>
      <trkpt lat="44.75891" lon="5.06199">
        <ele>482.24</ele>
        <time>2022-03-02T12:17:41Z</time>
      </trkpt>
      <trkpt lat="44.75872" lon="5.06204">
        <ele>481.28</ele>
        <time>2022-03-02T12:17:59Z</time>
      </trkpt>
      <trkpt lat="44.75854" lon="5.06213">
        <ele>479.84</ele>
        <time>2022-03-02T12:18:16Z</time>
      </trkpt>
      <trkpt lat="44.75839" lon="5.06222">
        <ele>478.87</ele>
        <time>2022-03-02T12:18:34Z</time>
      </trkpt>
      <trkpt lat="44.75825" lon="5.06227">
        <ele>476.95</ele>
        <time>2022-03-02T12:18:51Z</time>
      </trkpt>
      <trkpt lat="44.75811" lon="5.06236">
        <ele>474.07</ele>
        <time>2022-03-02T12:19:10Z</time>
      </trkpt>
      <trkpt lat="44.75796" lon="5.06239">
        <ele>471.18</ele>
        <time>2022-03-02T12:19:27Z</time>
      </trkpt>
      <trkpt lat="44.75776" lon="5.06238">
        <ele>469.74</ele>
        <time>2022-03-02T12:19:49Z</time>
      </trkpt>
      <trkpt lat="44.75756" lon="5.06234">
        <ele>468.3</ele>
        <time>2022-03-02T12:20:08Z</time>
      </trkpt>
      <trkpt lat="44.75738" lon="5.0623">
        <ele>466.38</ele>
        <time>2022-03-02T12:20:28Z</time>
      </trkpt>
      <trkpt lat="44.7573" lon="5.06232">
        <ele>465.42</ele>
        <time>2022-03-02T12:20:44Z</time>
      </trkpt>
      <trkpt lat="44.75726" lon="5.06231">
        <ele>465.42</ele>
        <time>2022-03-02T12:20:58Z</time>
      </trkpt>
      <trkpt lat="44.75722" lon="5.0623">
        <ele>464.45</ele>
        <time>2022-03-02T12:21:15Z</time>
      </trkpt>
      <trkpt lat="44.75721" lon="5.06232">
        <ele>463.97</ele>
        <time>2022-03-02T12:21:30Z</time>
      </trkpt>
      <trkpt lat="44.7572" lon="5.06232">
        <ele>463.97</ele>
        <time>2022-03-02T12:22:12Z</time>
      </trkpt>
      <trkpt lat="44.7572" lon="5.06232">
        <ele>463.97</ele>
        <time>2022-03-02T12:23:02Z</time>
      </trkpt>
      <trkpt lat="44.75721" lon="5.06232">
        <ele>463.97</ele>
        <time>2022-03-02T12:23:40Z</time>
      </trkpt>
      <trkpt lat="44.7572" lon="5.06231">
        <ele>463.97</ele>
        <time>2022-03-02T12:24:27Z</time>
      </trkpt>
      <trkpt lat="44.7572" lon="5.06231">
        <ele>463.97</ele>
        <time>2022-03-02T12:24:54Z</time>
      </trkpt>
      <trkpt lat="44.7572" lon="5.0623">
        <ele>463.97</ele>
        <time>2022-03-02T12:25:24Z</time>
      </trkpt>
      <trkpt lat="44.75721" lon="5.0623">
        <ele>463.97</ele>
        <time>2022-03-02T12:25:53Z</time>
      </trkpt>
      <trkpt lat="44.75722" lon="5.0623">
        <ele>463.97</ele>
        <time>2022-03-02T12:26:19Z</time>
      </trkpt>
      <trkpt lat="44.75716" lon="5.06234">
        <ele>463.97</ele>
        <time>2022-03-02T12:26:38Z</time>
      </trkpt>
      <trkpt lat="44.75707" lon="5.06237">
        <ele>463.01</ele>
        <time>2022-03-02T12:26:51Z</time>
      </trkpt>
      <trkpt lat="44.75699" lon="5.06237">
        <ele>463.01</ele>
        <time>2022-03-02T12:27:02Z</time>
      </trkpt>
      <trkpt lat="44.75694" lon="5.06237">
        <ele>462.05</ele>
        <time>2022-03-02T12:27:08Z</time>
      </trkpt>
      <trkpt lat="44.7569" lon="5.06238">
        <ele>461.57</ele>
        <time>2022-03-02T12:27:13Z</time>
      </trkpt>
      <trkpt lat="44.75689" lon="5.06239">
        <ele>461.57</ele>
        <time>2022-03-02T12:27:14Z</time>
      </trkpt>
      <trkpt lat="44.75687" lon="5.06239">
        <ele>461.57</ele>
        <time>2022-03-02T12:27:16Z</time>
      </trkpt>
      <trkpt lat="44.75686" lon="5.0624">
        <ele>461.09</ele>
        <time>2022-03-02T12:27:17Z</time>
      </trkpt>
      <trkpt lat="44.75665" lon="5.06245">
        <ele>460.13</ele>
        <time>2022-03-02T12:27:36Z</time>
      </trkpt>
      <trkpt lat="44.75647" lon="5.06245">
        <ele>459.65</ele>
        <time>2022-03-02T12:27:55Z</time>
      </trkpt>
      <trkpt lat="44.75633" lon="5.06247">
        <ele>457.24</ele>
        <time>2022-03-02T12:28:13Z</time>
      </trkpt>
      <trkpt lat="44.75622" lon="5.06252">
        <ele>454.84</ele>
        <time>2022-03-02T12:28:27Z</time>
      </trkpt>
      <trkpt lat="44.75609" lon="5.06258">
        <ele>452.44</ele>
        <time>2022-03-02T12:28:44Z</time>
      </trkpt>
      <trkpt lat="44.75598" lon="5.06253">
        <ele>450.03</ele>
        <time>2022-03-02T12:29:03Z</time>
      </trkpt>
      <trkpt lat="44.75592" lon="5.0626">
        <ele>448.11</ele>
        <time>2022-03-02T12:29:19Z</time>
      </trkpt>
      <trkpt lat="44.75587" lon="5.0627">
        <ele>446.19</ele>
        <time>2022-03-02T12:29:36Z</time>
      </trkpt>
      <trkpt lat="44.75578" lon="5.06271">
        <ele>443.79</ele>
        <time>2022-03-02T12:29:51Z</time>
      </trkpt>
      <trkpt lat="44.75573" lon="5.06279">
        <ele>442.34</ele>
        <time>2022-03-02T12:30:04Z</time>
      </trkpt>
      <trkpt lat="44.75568" lon="5.06272">
        <ele>440.9</ele>
        <time>2022-03-02T12:30:21Z</time>
      </trkpt>
      <trkpt lat="44.75567" lon="5.06271">
        <ele>440.9</ele>
        <time>2022-03-02T12:30:22Z</time>
      </trkpt>
      <trkpt lat="44.7556" lon="5.06274">
        <ele>438.98</ele>
        <time>2022-03-02T12:30:36Z</time>
      </trkpt>
      <trkpt lat="44.75558" lon="5.06282">
        <ele>437.54</ele>
        <time>2022-03-02T12:30:49Z</time>
      </trkpt>
      <trkpt lat="44.75557" lon="5.0629">
        <ele>435.61</ele>
        <time>2022-03-02T12:31:05Z</time>
      </trkpt>
      <trkpt lat="44.75557" lon="5.06291">
        <ele>435.61</ele>
        <time>2022-03-02T12:31:06Z</time>
      </trkpt>
      <trkpt lat="44.75556" lon="5.06293">
        <ele>435.61</ele>
        <time>2022-03-02T12:31:07Z</time>
      </trkpt>
      <trkpt lat="44.75556" lon="5.06294">
        <ele>435.61</ele>
        <time>2022-03-02T12:31:08Z</time>
      </trkpt>
      <trkpt lat="44.75548" lon="5.06307">
        <ele>433.21</ele>
        <time>2022-03-02T12:31:22Z</time>
      </trkpt>
      <trkpt lat="44.7554" lon="5.06315">
        <ele>430.33</ele>
        <time>2022-03-02T12:31:36Z</time>
      </trkpt>
      <trkpt lat="44.75526" lon="5.0632">
        <ele>426.96</ele>
        <time>2022-03-02T12:31:55Z</time>
      </trkpt>
      <trkpt lat="44.75516" lon="5.06323">
        <ele>424.56</ele>
        <time>2022-03-02T12:32:12Z</time>
      </trkpt>
      <trkpt lat="44.75507" lon="5.06333">
        <ele>421.19</ele>
        <time>2022-03-02T12:32:30Z</time>
      </trkpt>
      <trkpt lat="44.75504" lon="5.06333">
        <ele>421.19</ele>
        <time>2022-03-02T12:32:33Z</time>
      </trkpt>
      <trkpt lat="44.75503" lon="5.06333">
        <ele>420.71</ele>
        <time>2022-03-02T12:32:34Z</time>
      </trkpt>
      <trkpt lat="44.75502" lon="5.06332">
        <ele>420.23</ele>
        <time>2022-03-02T12:32:35Z</time>
      </trkpt>
      <trkpt lat="44.75487" lon="5.06323">
        <ele>417.35</ele>
        <time>2022-03-02T12:32:55Z</time>
      </trkpt>
      <trkpt lat="44.7548" lon="5.06327">
        <ele>415.91</ele>
        <time>2022-03-02T12:33:07Z</time>
      </trkpt>
      <trkpt lat="44.75475" lon="5.06328">
        <ele>414.95</ele>
        <time>2022-03-02T12:33:13Z</time>
      </trkpt>
      <trkpt lat="44.75474" lon="5.06327">
        <ele>414.95</ele>
        <time>2022-03-02T12:33:14Z</time>
      </trkpt>
      <trkpt lat="44.75473" lon="5.06326">
        <ele>414.95</ele>
        <time>2022-03-02T12:33:15Z</time>
      </trkpt>
      <trkpt lat="44.75473" lon="5.06325">
        <ele>414.47</ele>
        <time>2022-03-02T12:33:16Z</time>
      </trkpt>
      <trkpt lat="44.75472" lon="5.06324">
        <ele>414.47</ele>
        <time>2022-03-02T12:33:17Z</time>
      </trkpt>
      <trkpt lat="44.75464" lon="5.06325">
        <ele>412.54</ele>
        <time>2022-03-02T12:33:33Z</time>
      </trkpt>
      <trkpt lat="44.75457" lon="5.06325">
        <ele>411.1</ele>
        <time>2022-03-02T12:33:46Z</time>
      </trkpt>
      <trkpt lat="44.75448" lon="5.06328">
        <ele>408.7</ele>
        <time>2022-03-02T12:34:01Z</time>
      </trkpt>
      <trkpt lat="44.75443" lon="5.06329">
        <ele>407.74</ele>
        <time>2022-03-02T12:34:06Z</time>
      </trkpt>
      <trkpt lat="44.75442" lon="5.0633">
        <ele>407.74</ele>
        <time>2022-03-02T12:34:07Z</time>
      </trkpt>
      <trkpt lat="44.75434" lon="5.06339">
        <ele>405.33</ele>
        <time>2022-03-02T12:34:22Z</time>
      </trkpt>
      <trkpt lat="44.75427" lon="5.0635">
        <ele>402.45</ele>
        <time>2022-03-02T12:34:40Z</time>
      </trkpt>
      <trkpt lat="44.75428" lon="5.0635">
        <ele>401.97</ele>
        <time>2022-03-02T12:34:54Z</time>
      </trkpt>
      <trkpt lat="44.75427" lon="5.06346">
        <ele>402.93</ele>
        <time>2022-03-02T12:35:13Z</time>
      </trkpt>
      <trkpt lat="44.75427" lon="5.06353">
        <ele>402.45</ele>
        <time>2022-03-02T12:35:53Z</time>
      </trkpt>
      <trkpt lat="44.75422" lon="5.06357">
        <ele>401.49</ele>
        <time>2022-03-02T12:36:14Z</time>
      </trkpt>
      <trkpt lat="44.75414" lon="5.06358">
        <ele>399.08</ele>
        <time>2022-03-02T12:36:31Z</time>
      </trkpt>
      <trkpt lat="44.75413" lon="5.06359">
        <ele>399.08</ele>
        <time>2022-03-02T12:36:32Z</time>
      </trkpt>
      <trkpt lat="44.75412" lon="5.06362">
        <ele>399.08</ele>
        <time>2022-03-02T12:36:34Z</time>
      </trkpt>
      <trkpt lat="44.75412" lon="5.06363">
        <ele>399.08</ele>
        <time>2022-03-02T12:36:35Z</time>
      </trkpt>
      <trkpt lat="44.75411" lon="5.06365">
        <ele>398.6</ele>
        <time>2022-03-02T12:36:36Z</time>
      </trkpt>
      <trkpt lat="44.75411" lon="5.06366">
        <ele>398.6</ele>
        <time>2022-03-02T12:36:37Z</time>
      </trkpt>
      <trkpt lat="44.75408" lon="5.06369">
        <ele>398.6</ele>
        <time>2022-03-02T12:36:48Z</time>
      </trkpt>
      <trkpt lat="44.75408" lon="5.06368">
        <ele>398.6</ele>
        <time>2022-03-02T12:36:49Z</time>
      </trkpt>
      <trkpt lat="44.75408" lon="5.06367">
        <ele>398.6</ele>
        <time>2022-03-02T12:36:50Z</time>
      </trkpt>
      <trkpt lat="44.75411" lon="5.06356">
        <ele>398.6</ele>
        <time>2022-03-02T12:36:58Z</time>
      </trkpt>
      <trkpt lat="44.7541" lon="5.06355">
        <ele>398.6</ele>
        <time>2022-03-02T12:36:59Z</time>
      </trkpt>
      <trkpt lat="44.7541" lon="5.06353">
        <ele>398.6</ele>
        <time>2022-03-02T12:37:00Z</time>
      </trkpt>
      <trkpt lat="44.7541" lon="5.06352">
        <ele>398.6</ele>
        <time>2022-03-02T12:37:01Z</time>
      </trkpt>
      <trkpt lat="44.75409" lon="5.0635">
        <ele>398.6</ele>
        <time>2022-03-02T12:37:02Z</time>
      </trkpt>
      <trkpt lat="44.75406" lon="5.06327">
        <ele>398.6</ele>
        <time>2022-03-02T12:37:18Z</time>
      </trkpt>
      <trkpt lat="44.754" lon="5.06304">
        <ele>399.08</ele>
        <time>2022-03-02T12:37:33Z</time>
      </trkpt>
      <trkpt lat="44.754" lon="5.06299">
        <ele>399.08</ele>
        <time>2022-03-02T12:37:36Z</time>
      </trkpt>
      <trkpt lat="44.754" lon="5.06297">
        <ele>399.08</ele>
        <time>2022-03-02T12:37:37Z</time>
      </trkpt>
      <trkpt lat="44.754" lon="5.0628">
        <ele>398.6</ele>
        <time>2022-03-02T12:37:46Z</time>
      </trkpt>
      <trkpt lat="44.75402" lon="5.06273">
        <ele>398.6</ele>
        <time>2022-03-02T12:37:50Z</time>
      </trkpt>
      <trkpt lat="44.75403" lon="5.06263">
        <ele>398.12</ele>
        <time>2022-03-02T12:37:55Z</time>
      </trkpt>
      <trkpt lat="44.75405" lon="5.0623">
        <ele>395.24</ele>
        <time>2022-03-02T12:38:10Z</time>
      </trkpt>
      <trkpt lat="44.75414" lon="5.06211">
        <ele>392.36</ele>
        <time>2022-03-02T12:38:23Z</time>
      </trkpt>
      <trkpt lat="44.75437" lon="5.06198">
        <ele>390.43</ele>
        <time>2022-03-02T12:38:39Z</time>
      </trkpt>
      <trkpt lat="44.75442" lon="5.06198">
        <ele>389.95</ele>
        <time>2022-03-02T12:38:42Z</time>
      </trkpt>
      <trkpt lat="44.75446" lon="5.06196">
        <ele>389.95</ele>
        <time>2022-03-02T12:38:44Z</time>
      </trkpt>
      <trkpt lat="44.75446" lon="5.06194">
        <ele>389.95</ele>
        <time>2022-03-02T12:38:45Z</time>
      </trkpt>
      <trkpt lat="44.75446" lon="5.06192">
        <ele>389.95</ele>
        <time>2022-03-02T12:38:46Z</time>
      </trkpt>
      <trkpt lat="44.75447" lon="5.0619">
        <ele>389.95</ele>
        <time>2022-03-02T12:38:47Z</time>
      </trkpt>
      <trkpt lat="44.75447" lon="5.06189">
        <ele>389.95</ele>
        <time>2022-03-02T12:38:48Z</time>
      </trkpt>
      <trkpt lat="44.75448" lon="5.06187">
        <ele>389.95</ele>
        <time>2022-03-02T12:38:49Z</time>
      </trkpt>
      <trkpt lat="44.75448" lon="5.06185">
        <ele>389.95</ele>
        <time>2022-03-02T12:38:50Z</time>
      </trkpt>
      <trkpt lat="44.75449" lon="5.06184">
        <ele>390.43</ele>
        <time>2022-03-02T12:38:51Z</time>
      </trkpt>
      <trkpt lat="44.75449" lon="5.06182">
        <ele>390.43</ele>
        <time>2022-03-02T12:38:52Z</time>
      </trkpt>
      <trkpt lat="44.75462" lon="5.06156">
        <ele>388.99</ele>
        <time>2022-03-02T12:39:06Z</time>
      </trkpt>
      <trkpt lat="44.75462" lon="5.06154">
        <ele>388.99</ele>
        <time>2022-03-02T12:39:07Z</time>
      </trkpt>
      <trkpt lat="44.75462" lon="5.06143">
        <ele>388.03</ele>
        <time>2022-03-02T12:39:14Z</time>
      </trkpt>
      <trkpt lat="44.75461" lon="5.06141">
        <ele>387.55</ele>
        <time>2022-03-02T12:39:16Z</time>
      </trkpt>
      <trkpt lat="44.75461" lon="5.06136">
        <ele>387.07</ele>
        <time>2022-03-02T12:39:20Z</time>
      </trkpt>
      <trkpt lat="44.75465" lon="5.06117">
        <ele>385.63</ele>
        <time>2022-03-02T12:39:31Z</time>
      </trkpt>
      <trkpt lat="44.75464" lon="5.06133">
        <ele>385.63</ele>
        <time>2022-03-02T12:39:43Z</time>
      </trkpt>
      <trkpt lat="44.75465" lon="5.06134">
        <ele>385.63</ele>
        <time>2022-03-02T12:39:44Z</time>
      </trkpt>
      <trkpt lat="44.75467" lon="5.06136">
        <ele>386.11</ele>
        <time>2022-03-02T12:39:46Z</time>
      </trkpt>
      <trkpt lat="44.75468" lon="5.06137">
        <ele>386.11</ele>
        <time>2022-03-02T12:39:47Z</time>
      </trkpt>
      <trkpt lat="44.75468" lon="5.06139">
        <ele>386.11</ele>
        <time>2022-03-02T12:39:48Z</time>
      </trkpt>
      <trkpt lat="44.75467" lon="5.06142">
        <ele>386.11</ele>
        <time>2022-03-02T12:39:49Z</time>
      </trkpt>
      <trkpt lat="44.75468" lon="5.06145">
        <ele>386.59</ele>
        <time>2022-03-02T12:39:50Z</time>
      </trkpt>
      <trkpt lat="44.75467" lon="5.06147">
        <ele>386.59</ele>
        <time>2022-03-02T12:39:51Z</time>
      </trkpt>
      <trkpt lat="44.75467" lon="5.06149">
        <ele>386.59</ele>
        <time>2022-03-02T12:39:52Z</time>
      </trkpt>
      <trkpt lat="44.75461" lon="5.0616">
        <ele>386.59</ele>
        <time>2022-03-02T12:39:58Z</time>
      </trkpt>
      <trkpt lat="44.7546" lon="5.06161">
        <ele>386.59</ele>
        <time>2022-03-02T12:39:59Z</time>
      </trkpt>
      <trkpt lat="44.75459" lon="5.06163">
        <ele>387.07</ele>
        <time>2022-03-02T12:40:00Z</time>
      </trkpt>
      <trkpt lat="44.75458" lon="5.06165">
        <ele>387.07</ele>
        <time>2022-03-02T12:40:01Z</time>
      </trkpt>
      <trkpt lat="44.75457" lon="5.06166">
        <ele>387.07</ele>
        <time>2022-03-02T12:40:02Z</time>
      </trkpt>
      <trkpt lat="44.75454" lon="5.06172">
        <ele>387.55</ele>
        <time>2022-03-02T12:40:05Z</time>
      </trkpt>
      <trkpt lat="44.75454" lon="5.06175">
        <ele>388.03</ele>
        <time>2022-03-02T12:40:06Z</time>
      </trkpt>
      <trkpt lat="44.75453" lon="5.06177">
        <ele>388.03</ele>
        <time>2022-03-02T12:40:07Z</time>
      </trkpt>
      <trkpt lat="44.75452" lon="5.0618">
        <ele>388.03</ele>
        <time>2022-03-02T12:40:09Z</time>
      </trkpt>
      <trkpt lat="44.75451" lon="5.06182">
        <ele>388.03</ele>
        <time>2022-03-02T12:40:10Z</time>
      </trkpt>
      <trkpt lat="44.75449" lon="5.06184">
        <ele>388.03</ele>
        <time>2022-03-02T12:40:11Z</time>
      </trkpt>
      <trkpt lat="44.75446" lon="5.06185">
        <ele>388.03</ele>
        <time>2022-03-02T12:40:12Z</time>
      </trkpt>
      <trkpt lat="44.75444" lon="5.06186">
        <ele>388.03</ele>
        <time>2022-03-02T12:40:13Z</time>
      </trkpt>
      <trkpt lat="44.75442" lon="5.06186">
        <ele>388.03</ele>
        <time>2022-03-02T12:40:14Z</time>
      </trkpt>
      <trkpt lat="44.7544" lon="5.06186">
        <ele>388.03</ele>
        <time>2022-03-02T12:40:15Z</time>
      </trkpt>
      <trkpt lat="44.75426" lon="5.0619">
        <ele>388.51</ele>
        <time>2022-03-02T12:40:23Z</time>
      </trkpt>
      <trkpt lat="44.75424" lon="5.06191">
        <ele>388.51</ele>
        <time>2022-03-02T12:40:24Z</time>
      </trkpt>
      <trkpt lat="44.75423" lon="5.06193">
        <ele>388.51</ele>
        <time>2022-03-02T12:40:25Z</time>
      </trkpt>
      <trkpt lat="44.75414" lon="5.06209">
        <ele>390.43</ele>
        <time>2022-03-02T12:40:37Z</time>
      </trkpt>
      <trkpt lat="44.75408" lon="5.06232">
        <ele>393.32</ele>
        <time>2022-03-02T12:40:52Z</time>
      </trkpt>
      <trkpt lat="44.75402" lon="5.06256">
        <ele>396.2</ele>
        <time>2022-03-02T12:41:09Z</time>
      </trkpt>
      <trkpt lat="44.754" lon="5.0627">
        <ele>397.16</ele>
        <time>2022-03-02T12:41:17Z</time>
      </trkpt>
      <trkpt lat="44.75399" lon="5.06278">
        <ele>397.16</ele>
        <time>2022-03-02T12:41:22Z</time>
      </trkpt>
      <trkpt lat="44.75399" lon="5.06281">
        <ele>397.16</ele>
        <time>2022-03-02T12:41:23Z</time>
      </trkpt>
      <trkpt lat="44.75399" lon="5.06283">
        <ele>397.16</ele>
        <time>2022-03-02T12:41:24Z</time>
      </trkpt>
      <trkpt lat="44.75399" lon="5.06285">
        <ele>397.16</ele>
        <time>2022-03-02T12:41:25Z</time>
      </trkpt>
      <trkpt lat="44.754" lon="5.06287">
        <ele>397.64</ele>
        <time>2022-03-02T12:41:26Z</time>
      </trkpt>
      <trkpt lat="44.754" lon="5.06289">
        <ele>397.64</ele>
        <time>2022-03-02T12:41:27Z</time>
      </trkpt>
      <trkpt lat="44.754" lon="5.06291">
        <ele>397.64</ele>
        <time>2022-03-02T12:41:28Z</time>
      </trkpt>
      <trkpt lat="44.75401" lon="5.06293">
        <ele>397.64</ele>
        <time>2022-03-02T12:41:29Z</time>
      </trkpt>
      <trkpt lat="44.75401" lon="5.06295">
        <ele>397.64</ele>
        <time>2022-03-02T12:41:30Z</time>
      </trkpt>
      <trkpt lat="44.75402" lon="5.06297">
        <ele>397.64</ele>
        <time>2022-03-02T12:41:31Z</time>
      </trkpt>
      <trkpt lat="44.75402" lon="5.06299">
        <ele>398.12</ele>
        <time>2022-03-02T12:41:32Z</time>
      </trkpt>
      <trkpt lat="44.75402" lon="5.063">
        <ele>398.12</ele>
        <time>2022-03-02T12:41:33Z</time>
      </trkpt>
      <trkpt lat="44.75403" lon="5.06302">
        <ele>398.12</ele>
        <time>2022-03-02T12:41:34Z</time>
      </trkpt>
      <trkpt lat="44.75404" lon="5.06306">
        <ele>398.12</ele>
        <time>2022-03-02T12:41:37Z</time>
      </trkpt>
      <trkpt lat="44.75405" lon="5.06308">
        <ele>398.12</ele>
        <time>2022-03-02T12:41:38Z</time>
      </trkpt>
      <trkpt lat="44.75409" lon="5.06327">
        <ele>397.64</ele>
        <time>2022-03-02T12:41:48Z</time>
      </trkpt>
      <trkpt lat="44.75413" lon="5.0635">
        <ele>397.64</ele>
        <time>2022-03-02T12:42:01Z</time>
      </trkpt>
      <trkpt lat="44.75412" lon="5.06355">
        <ele>398.12</ele>
        <time>2022-03-02T12:42:04Z</time>
      </trkpt>
      <trkpt lat="44.75412" lon="5.06356">
        <ele>398.12</ele>
        <time>2022-03-02T12:42:05Z</time>
      </trkpt>
      <trkpt lat="44.75411" lon="5.06358">
        <ele>398.12</ele>
        <time>2022-03-02T12:42:06Z</time>
      </trkpt>
      <trkpt lat="44.75405" lon="5.06374">
        <ele>398.12</ele>
        <time>2022-03-02T12:42:17Z</time>
      </trkpt>
      <trkpt lat="44.75387" lon="5.06391">
        <ele>396.2</ele>
        <time>2022-03-02T12:42:34Z</time>
      </trkpt>
      <trkpt lat="44.7537" lon="5.06414">
        <ele>394.76</ele>
        <time>2022-03-02T12:42:51Z</time>
      </trkpt>
      <trkpt lat="44.75369" lon="5.06415">
        <ele>394.76</ele>
        <time>2022-03-02T12:42:52Z</time>
      </trkpt>
      <trkpt lat="44.75369" lon="5.06417">
        <ele>394.76</ele>
        <time>2022-03-02T12:42:53Z</time>
      </trkpt>
      <trkpt lat="44.75367" lon="5.06421">
        <ele>393.8</ele>
        <time>2022-03-02T12:42:56Z</time>
      </trkpt>
      <trkpt lat="44.75366" lon="5.06422">
        <ele>393.8</ele>
        <time>2022-03-02T12:42:57Z</time>
      </trkpt>
      <trkpt lat="44.75347" lon="5.06435">
        <ele>393.32</ele>
        <time>2022-03-02T12:43:14Z</time>
      </trkpt>
      <trkpt lat="44.75331" lon="5.06449">
        <ele>392.84</ele>
        <time>2022-03-02T12:43:28Z</time>
      </trkpt>
      <trkpt lat="44.7531" lon="5.06459">
        <ele>392.84</ele>
        <time>2022-03-02T12:43:44Z</time>
      </trkpt>
      <trkpt lat="44.75293" lon="5.06472">
        <ele>394.28</ele>
        <time>2022-03-02T12:44:00Z</time>
      </trkpt>
      <trkpt lat="44.75267" lon="5.0648">
        <ele>394.76</ele>
        <time>2022-03-02T12:44:20Z</time>
      </trkpt>
      <trkpt lat="44.75246" lon="5.06503">
        <ele>392.84</ele>
        <time>2022-03-02T12:44:38Z</time>
      </trkpt>
      <trkpt lat="44.75225" lon="5.06504">
        <ele>389.95</ele>
        <time>2022-03-02T12:44:54Z</time>
      </trkpt>
      <trkpt lat="44.75207" lon="5.06494">
        <ele>386.59</ele>
        <time>2022-03-02T12:45:09Z</time>
      </trkpt>
      <trkpt lat="44.75188" lon="5.06479">
        <ele>383.7</ele>
        <time>2022-03-02T12:45:24Z</time>
      </trkpt>
      <trkpt lat="44.75159" lon="5.06473">
        <ele>380.82</ele>
        <time>2022-03-02T12:45:44Z</time>
      </trkpt>
      <trkpt lat="44.75131" lon="5.06464">
        <ele>378.42</ele>
        <time>2022-03-02T12:46:05Z</time>
      </trkpt>
      <trkpt lat="44.75104" lon="5.06454">
        <ele>376.97</ele>
        <time>2022-03-02T12:46:26Z</time>
      </trkpt>
      <trkpt lat="44.75077" lon="5.06447">
        <ele>375.53</ele>
        <time>2022-03-02T12:46:47Z</time>
      </trkpt>
      <trkpt lat="44.75049" lon="5.06441">
        <ele>374.09</ele>
        <time>2022-03-02T12:47:10Z</time>
      </trkpt>
      <trkpt lat="44.75048" lon="5.06441">
        <ele>374.09</ele>
        <time>2022-03-02T12:47:29Z</time>
      </trkpt>
      <trkpt lat="44.75045" lon="5.06441">
        <ele>373.61</ele>
        <time>2022-03-02T12:47:40Z</time>
      </trkpt>
      <trkpt lat="44.75044" lon="5.0644">
        <ele>373.61</ele>
        <time>2022-03-02T12:47:41Z</time>
      </trkpt>
      <trkpt lat="44.75042" lon="5.0644">
        <ele>373.61</ele>
        <time>2022-03-02T12:47:42Z</time>
      </trkpt>
      <trkpt lat="44.75041" lon="5.06439">
        <ele>373.61</ele>
        <time>2022-03-02T12:47:43Z</time>
      </trkpt>
      <trkpt lat="44.7504" lon="5.06439">
        <ele>373.61</ele>
        <time>2022-03-02T12:47:44Z</time>
      </trkpt>
      <trkpt lat="44.75039" lon="5.06439">
        <ele>373.61</ele>
        <time>2022-03-02T12:47:45Z</time>
      </trkpt>
      <trkpt lat="44.75013" lon="5.06433">
        <ele>371.69</ele>
        <time>2022-03-02T12:48:09Z</time>
      </trkpt>
      <trkpt lat="44.74989" lon="5.0643">
        <ele>370.24</ele>
        <time>2022-03-02T12:48:31Z</time>
      </trkpt>
      <trkpt lat="44.74974" lon="5.06427">
        <ele>368.8</ele>
        <time>2022-03-02T12:48:49Z</time>
      </trkpt>
      <trkpt lat="44.7496" lon="5.06426">
        <ele>368.32</ele>
        <time>2022-03-02T12:49:06Z</time>
      </trkpt>
      <trkpt lat="44.74942" lon="5.06427">
        <ele>367.36</ele>
        <time>2022-03-02T12:49:25Z</time>
      </trkpt>
      <trkpt lat="44.74919" lon="5.06429">
        <ele>365.92</ele>
        <time>2022-03-02T12:49:48Z</time>
      </trkpt>
      <trkpt lat="44.74894" lon="5.06436">
        <ele>363.04</ele>
        <time>2022-03-02T12:50:11Z</time>
      </trkpt>
      <trkpt lat="44.74875" lon="5.06444">
        <ele>361.11</ele>
        <time>2022-03-02T12:50:30Z</time>
      </trkpt>
      <trkpt lat="44.74856" lon="5.06444">
        <ele>359.19</ele>
        <time>2022-03-02T12:50:50Z</time>
      </trkpt>
      <trkpt lat="44.74836" lon="5.06442">
        <ele>357.27</ele>
        <time>2022-03-02T12:51:11Z</time>
      </trkpt>
      <trkpt lat="44.74817" lon="5.0644">
        <ele>355.83</ele>
        <time>2022-03-02T12:51:31Z</time>
      </trkpt>
      <trkpt lat="44.74799" lon="5.06431">
        <ele>356.79</ele>
        <time>2022-03-02T12:51:52Z</time>
      </trkpt>
      <trkpt lat="44.74777" lon="5.06418">
        <ele>356.79</ele>
        <time>2022-03-02T12:52:13Z</time>
      </trkpt>
      <trkpt lat="44.74758" lon="5.06403">
        <ele>356.79</ele>
        <time>2022-03-02T12:52:32Z</time>
      </trkpt>
      <trkpt lat="44.7474" lon="5.06397">
        <ele>356.31</ele>
        <time>2022-03-02T12:52:49Z</time>
      </trkpt>
      <trkpt lat="44.74719" lon="5.06392">
        <ele>355.34</ele>
        <time>2022-03-02T12:53:09Z</time>
      </trkpt>
      <trkpt lat="44.747" lon="5.0639">
        <ele>355.83</ele>
        <time>2022-03-02T12:53:29Z</time>
      </trkpt>
      <trkpt lat="44.74682" lon="5.06386">
        <ele>355.83</ele>
        <time>2022-03-02T12:53:47Z</time>
      </trkpt>
      <trkpt lat="44.74663" lon="5.06383">
        <ele>357.75</ele>
        <time>2022-03-02T12:54:08Z</time>
      </trkpt>
      <trkpt lat="44.74647" lon="5.06379">
        <ele>359.19</ele>
        <time>2022-03-02T12:54:26Z</time>
      </trkpt>
      <trkpt lat="44.74631" lon="5.06377">
        <ele>359.67</ele>
        <time>2022-03-02T12:54:43Z</time>
      </trkpt>
      <trkpt lat="44.74611" lon="5.06372">
        <ele>360.63</ele>
        <time>2022-03-02T12:55:03Z</time>
      </trkpt>
      <trkpt lat="44.74592" lon="5.06363">
        <ele>362.07</ele>
        <time>2022-03-02T12:55:23Z</time>
      </trkpt>
      <trkpt lat="44.74571" lon="5.06359">
        <ele>363.04</ele>
        <time>2022-03-02T12:55:43Z</time>
      </trkpt>
      <trkpt lat="44.74548" lon="5.06354">
        <ele>363.52</ele>
        <time>2022-03-02T12:56:05Z</time>
      </trkpt>
      <trkpt lat="44.74531" lon="5.06349">
        <ele>364</ele>
        <time>2022-03-02T12:56:22Z</time>
      </trkpt>
      <trkpt lat="44.74513" lon="5.06342">
        <ele>365.44</ele>
        <time>2022-03-02T12:56:41Z</time>
      </trkpt>
      <trkpt lat="44.74495" lon="5.06338">
        <ele>366.88</ele>
        <time>2022-03-02T12:57:01Z</time>
      </trkpt>
      <trkpt lat="44.74477" lon="5.06335">
        <ele>367.36</ele>
        <time>2022-03-02T12:57:18Z</time>
      </trkpt>
      <trkpt lat="44.74462" lon="5.0633">
        <ele>366.88</ele>
        <time>2022-03-02T12:57:33Z</time>
      </trkpt>
      <trkpt lat="44.74446" lon="5.06325">
        <ele>366.88</ele>
        <time>2022-03-02T12:57:48Z</time>
      </trkpt>
      <trkpt lat="44.74426" lon="5.06324">
        <ele>366.88</ele>
        <time>2022-03-02T12:58:07Z</time>
      </trkpt>
      <trkpt lat="44.74423" lon="5.06323">
        <ele>366.88</ele>
        <time>2022-03-02T12:58:10Z</time>
      </trkpt>
      <trkpt lat="44.74408" lon="5.06321">
        <ele>366.88</ele>
        <time>2022-03-02T12:58:24Z</time>
      </trkpt>
      <trkpt lat="44.74394" lon="5.06322">
        <ele>366.4</ele>
        <time>2022-03-02T12:58:42Z</time>
      </trkpt>
      <trkpt lat="44.7439" lon="5.06321">
        <ele>365.92</ele>
        <time>2022-03-02T12:59:00Z</time>
      </trkpt>
      <trkpt lat="44.7439" lon="5.06321">
        <ele>365.44</ele>
        <time>2022-03-02T12:59:58Z</time>
      </trkpt>
      <trkpt lat="44.74389" lon="5.0632">
        <ele>367.36</ele>
        <time>2022-03-02T13:00:18Z</time>
      </trkpt>
      <trkpt lat="44.74386" lon="5.06322">
        <ele>366.88</ele>
        <time>2022-03-02T13:00:22Z</time>
      </trkpt>
      <trkpt lat="44.74385" lon="5.06323">
        <ele>366.4</ele>
        <time>2022-03-02T13:00:23Z</time>
      </trkpt>
      <trkpt lat="44.74382" lon="5.06323">
        <ele>366.4</ele>
        <time>2022-03-02T13:00:24Z</time>
      </trkpt>
      <trkpt lat="44.7438" lon="5.06323">
        <ele>366.4</ele>
        <time>2022-03-02T13:00:25Z</time>
      </trkpt>
      <trkpt lat="44.74378" lon="5.06324">
        <ele>366.4</ele>
        <time>2022-03-02T13:00:26Z</time>
      </trkpt>
      <trkpt lat="44.74356" lon="5.06326">
        <ele>364</ele>
        <time>2022-03-02T13:00:41Z</time>
      </trkpt>
      <trkpt lat="44.74335" lon="5.06328">
        <ele>362.55</ele>
        <time>2022-03-02T13:00:58Z</time>
      </trkpt>
      <trkpt lat="44.74307" lon="5.06336">
        <ele>360.63</ele>
        <time>2022-03-02T13:01:20Z</time>
      </trkpt>
      <trkpt lat="44.7428" lon="5.06338">
        <ele>360.63</ele>
        <time>2022-03-02T13:01:41Z</time>
      </trkpt>
      <trkpt lat="44.74255" lon="5.0634">
        <ele>361.11</ele>
        <time>2022-03-02T13:02:02Z</time>
      </trkpt>
      <trkpt lat="44.74231" lon="5.06342">
        <ele>363.04</ele>
        <time>2022-03-02T13:02:23Z</time>
      </trkpt>
      <trkpt lat="44.74211" lon="5.06339">
        <ele>365.44</ele>
        <time>2022-03-02T13:02:42Z</time>
      </trkpt>
      <trkpt lat="44.74195" lon="5.06338">
        <ele>366.88</ele>
        <time>2022-03-02T13:02:59Z</time>
      </trkpt>
      <trkpt lat="44.74178" lon="5.06337">
        <ele>368.8</ele>
        <time>2022-03-02T13:03:16Z</time>
      </trkpt>
      <trkpt lat="44.74162" lon="5.06331">
        <ele>370.73</ele>
        <time>2022-03-02T13:03:34Z</time>
      </trkpt>
      <trkpt lat="44.74145" lon="5.06325">
        <ele>373.61</ele>
        <time>2022-03-02T13:03:54Z</time>
      </trkpt>
      <trkpt lat="44.74134" lon="5.06323">
        <ele>375.53</ele>
        <time>2022-03-02T13:04:06Z</time>
      </trkpt>
      <trkpt lat="44.74133" lon="5.06323">
        <ele>376.01</ele>
        <time>2022-03-02T13:04:07Z</time>
      </trkpt>
      <trkpt lat="44.74116" lon="5.06318">
        <ele>377.45</ele>
        <time>2022-03-02T13:04:24Z</time>
      </trkpt>
      <trkpt lat="44.74098" lon="5.06315">
        <ele>378.42</ele>
        <time>2022-03-02T13:04:42Z</time>
      </trkpt>
      <trkpt lat="44.74081" lon="5.06316">
        <ele>379.38</ele>
        <time>2022-03-02T13:04:58Z</time>
      </trkpt>
      <trkpt lat="44.74065" lon="5.06315">
        <ele>380.82</ele>
        <time>2022-03-02T13:05:14Z</time>
      </trkpt>
      <trkpt lat="44.7406" lon="5.06313">
        <ele>381.3</ele>
        <time>2022-03-02T13:05:31Z</time>
      </trkpt>
      <trkpt lat="44.7406" lon="5.06312">
        <ele>381.78</ele>
        <time>2022-03-02T13:06:05Z</time>
      </trkpt>
      <trkpt lat="44.7406" lon="5.06312">
        <ele>381.78</ele>
        <time>2022-03-02T13:06:38Z</time>
      </trkpt>
      <trkpt lat="44.7406" lon="5.06312">
        <ele>381.78</ele>
        <time>2022-03-02T13:06:58Z</time>
      </trkpt>
      <trkpt lat="44.74059" lon="5.06312">
        <ele>381.78</ele>
        <time>2022-03-02T13:07:34Z</time>
      </trkpt>
      <trkpt lat="44.74059" lon="5.06312">
        <ele>381.3</ele>
        <time>2022-03-02T13:08:15Z</time>
      </trkpt>
      <trkpt lat="44.74059" lon="5.06311">
        <ele>381.78</ele>
        <time>2022-03-02T13:08:35Z</time>
      </trkpt>
      <trkpt lat="44.74058" lon="5.06311">
        <ele>381.78</ele>
        <time>2022-03-02T13:09:13Z</time>
      </trkpt>
      <trkpt lat="44.74057" lon="5.06309">
        <ele>381.78</ele>
        <time>2022-03-02T13:09:34Z</time>
      </trkpt>
      <trkpt lat="44.74037" lon="5.06301">
        <ele>381.78</ele>
        <time>2022-03-02T13:09:54Z</time>
      </trkpt>
      <trkpt lat="44.74035" lon="5.06299">
        <ele>381.78</ele>
        <time>2022-03-02T13:09:57Z</time>
      </trkpt>
      <trkpt lat="44.74034" lon="5.06299">
        <ele>381.78</ele>
        <time>2022-03-02T13:09:58Z</time>
      </trkpt>
      <trkpt lat="44.74029" lon="5.06296">
        <ele>381.3</ele>
        <time>2022-03-02T13:10:03Z</time>
      </trkpt>
      <trkpt lat="44.74011" lon="5.06287">
        <ele>381.3</ele>
        <time>2022-03-02T13:10:20Z</time>
      </trkpt>
      <trkpt lat="44.74004" lon="5.06286">
        <ele>381.3</ele>
        <time>2022-03-02T13:10:26Z</time>
      </trkpt>
      <trkpt lat="44.74003" lon="5.06286">
        <ele>381.3</ele>
        <time>2022-03-02T13:10:27Z</time>
      </trkpt>
      <trkpt lat="44.74002" lon="5.06286">
        <ele>381.3</ele>
        <time>2022-03-02T13:10:28Z</time>
      </trkpt>
      <trkpt lat="44.74001" lon="5.06286">
        <ele>381.3</ele>
        <time>2022-03-02T13:10:29Z</time>
      </trkpt>
      <trkpt lat="44.74" lon="5.06286">
        <ele>381.3</ele>
        <time>2022-03-02T13:10:30Z</time>
      </trkpt>
      <trkpt lat="44.73978" lon="5.06278">
        <ele>381.3</ele>
        <time>2022-03-02T13:10:51Z</time>
      </trkpt>
      <trkpt lat="44.73956" lon="5.06272">
        <ele>381.78</ele>
        <time>2022-03-02T13:11:11Z</time>
      </trkpt>
      <trkpt lat="44.73939" lon="5.06269">
        <ele>381.78</ele>
        <time>2022-03-02T13:11:27Z</time>
      </trkpt>
      <trkpt lat="44.7392" lon="5.06265">
        <ele>382.26</ele>
        <time>2022-03-02T13:11:47Z</time>
      </trkpt>
      <trkpt lat="44.73905" lon="5.06264">
        <ele>382.74</ele>
        <time>2022-03-02T13:12:04Z</time>
      </trkpt>
      <trkpt lat="44.73885" lon="5.06263">
        <ele>383.22</ele>
        <time>2022-03-02T13:12:24Z</time>
      </trkpt>
      <trkpt lat="44.73866" lon="5.0626">
        <ele>383.22</ele>
        <time>2022-03-02T13:12:43Z</time>
      </trkpt>
      <trkpt lat="44.73846" lon="5.06257">
        <ele>384.18</ele>
        <time>2022-03-02T13:13:01Z</time>
      </trkpt>
      <trkpt lat="44.73823" lon="5.06254">
        <ele>384.18</ele>
        <time>2022-03-02T13:13:21Z</time>
      </trkpt>
      <trkpt lat="44.73805" lon="5.06247">
        <ele>384.66</ele>
        <time>2022-03-02T13:13:39Z</time>
      </trkpt>
      <trkpt lat="44.73785" lon="5.06241">
        <ele>384.66</ele>
        <time>2022-03-02T13:13:58Z</time>
      </trkpt>
      <trkpt lat="44.73767" lon="5.06241">
        <ele>384.66</ele>
        <time>2022-03-02T13:14:17Z</time>
      </trkpt>
      <trkpt lat="44.73749" lon="5.0624">
        <ele>384.66</ele>
        <time>2022-03-02T13:14:35Z</time>
      </trkpt>
      <trkpt lat="44.73731" lon="5.06239">
        <ele>383.7</ele>
        <time>2022-03-02T13:14:52Z</time>
      </trkpt>
      <trkpt lat="44.73711" lon="5.06237">
        <ele>383.22</ele>
        <time>2022-03-02T13:15:10Z</time>
      </trkpt>
      <trkpt lat="44.73695" lon="5.06238">
        <ele>383.22</ele>
        <time>2022-03-02T13:15:28Z</time>
      </trkpt>
      <trkpt lat="44.73675" lon="5.06237">
        <ele>382.26</ele>
        <time>2022-03-02T13:15:47Z</time>
      </trkpt>
      <trkpt lat="44.73653" lon="5.0623">
        <ele>381.3</ele>
        <time>2022-03-02T13:16:08Z</time>
      </trkpt>
      <trkpt lat="44.73635" lon="5.06219">
        <ele>380.34</ele>
        <time>2022-03-02T13:16:27Z</time>
      </trkpt>
      <trkpt lat="44.73623" lon="5.0621">
        <ele>379.86</ele>
        <time>2022-03-02T13:16:40Z</time>
      </trkpt>
      <trkpt lat="44.73622" lon="5.0621">
        <ele>379.86</ele>
        <time>2022-03-02T13:16:41Z</time>
      </trkpt>
      <trkpt lat="44.73608" lon="5.06201">
        <ele>379.38</ele>
        <time>2022-03-02T13:16:57Z</time>
      </trkpt>
      <trkpt lat="44.73594" lon="5.06193">
        <ele>378.42</ele>
        <time>2022-03-02T13:17:13Z</time>
      </trkpt>
      <trkpt lat="44.73575" lon="5.06185">
        <ele>377.45</ele>
        <time>2022-03-02T13:17:31Z</time>
      </trkpt>
      <trkpt lat="44.73558" lon="5.06181">
        <ele>376.49</ele>
        <time>2022-03-02T13:17:46Z</time>
      </trkpt>
      <trkpt lat="44.73543" lon="5.06176">
        <ele>376.49</ele>
        <time>2022-03-02T13:18:01Z</time>
      </trkpt>
      <trkpt lat="44.7352" lon="5.06167">
        <ele>375.53</ele>
        <time>2022-03-02T13:18:22Z</time>
      </trkpt>
      <trkpt lat="44.73513" lon="5.06163">
        <ele>375.05</ele>
        <time>2022-03-02T13:18:31Z</time>
      </trkpt>
      <trkpt lat="44.73506" lon="5.06158">
        <ele>375.53</ele>
        <time>2022-03-02T13:18:39Z</time>
      </trkpt>
      <trkpt lat="44.73488" lon="5.06144">
        <ele>375.53</ele>
        <time>2022-03-02T13:18:58Z</time>
      </trkpt>
      <trkpt lat="44.73467" lon="5.06129">
        <ele>374.57</ele>
        <time>2022-03-02T13:19:20Z</time>
      </trkpt>
      <trkpt lat="44.73454" lon="5.06118">
        <ele>374.09</ele>
        <time>2022-03-02T13:19:37Z</time>
      </trkpt>
      <trkpt lat="44.73447" lon="5.06114">
        <ele>374.57</ele>
        <time>2022-03-02T13:19:55Z</time>
      </trkpt>
      <trkpt lat="44.73443" lon="5.06106">
        <ele>375.05</ele>
        <time>2022-03-02T13:20:16Z</time>
      </trkpt>
      <trkpt lat="44.73439" lon="5.06101">
        <ele>375.53</ele>
        <time>2022-03-02T13:20:30Z</time>
      </trkpt>
      <trkpt lat="44.73434" lon="5.06089">
        <ele>375.53</ele>
        <time>2022-03-02T13:20:47Z</time>
      </trkpt>
      <trkpt lat="44.7343" lon="5.06083">
        <ele>375.53</ele>
        <time>2022-03-02T13:21:02Z</time>
      </trkpt>
      <trkpt lat="44.73417" lon="5.06069">
        <ele>374.57</ele>
        <time>2022-03-02T13:21:19Z</time>
      </trkpt>
      <trkpt lat="44.73397" lon="5.06052">
        <ele>373.13</ele>
        <time>2022-03-02T13:21:40Z</time>
      </trkpt>
      <trkpt lat="44.73377" lon="5.0604">
        <ele>371.69</ele>
        <time>2022-03-02T13:21:59Z</time>
      </trkpt>
      <trkpt lat="44.73359" lon="5.06031">
        <ele>369.76</ele>
        <time>2022-03-02T13:22:17Z</time>
      </trkpt>
      <trkpt lat="44.73345" lon="5.06024">
        <ele>369.28</ele>
        <time>2022-03-02T13:22:33Z</time>
      </trkpt>
      <trkpt lat="44.73326" lon="5.06016">
        <ele>368.8</ele>
        <time>2022-03-02T13:22:52Z</time>
      </trkpt>
      <trkpt lat="44.73314" lon="5.06007">
        <ele>368.32</ele>
        <time>2022-03-02T13:23:07Z</time>
      </trkpt>
      <trkpt lat="44.733" lon="5.05994">
        <ele>368.8</ele>
        <time>2022-03-02T13:23:24Z</time>
      </trkpt>
      <trkpt lat="44.73283" lon="5.05975">
        <ele>369.76</ele>
        <time>2022-03-02T13:23:44Z</time>
      </trkpt>
      <trkpt lat="44.73273" lon="5.05958">
        <ele>368.8</ele>
        <time>2022-03-02T13:23:59Z</time>
      </trkpt>
      <trkpt lat="44.73267" lon="5.05946">
        <ele>367.84</ele>
        <time>2022-03-02T13:24:10Z</time>
      </trkpt>
      <trkpt lat="44.73253" lon="5.0593">
        <ele>367.84</ele>
        <time>2022-03-02T13:24:29Z</time>
      </trkpt>
      <trkpt lat="44.73239" lon="5.05922">
        <ele>366.4</ele>
        <time>2022-03-02T13:24:48Z</time>
      </trkpt>
      <trkpt lat="44.73238" lon="5.05916">
        <ele>365.92</ele>
        <time>2022-03-02T13:25:10Z</time>
      </trkpt>
      <trkpt lat="44.73238" lon="5.05916">
        <ele>368.8</ele>
        <time>2022-03-02T13:25:14Z</time>
      </trkpt>
      <trkpt lat="44.73239" lon="5.05915">
        <ele>366.4</ele>
        <time>2022-03-02T13:25:33Z</time>
      </trkpt>
      <trkpt lat="44.7324" lon="5.05911">
        <ele>366.4</ele>
        <time>2022-03-02T13:26:02Z</time>
      </trkpt>
      <trkpt lat="44.73239" lon="5.05906">
        <ele>366.4</ele>
        <time>2022-03-02T13:26:09Z</time>
      </trkpt>
      <trkpt lat="44.73238" lon="5.059">
        <ele>366.4</ele>
        <time>2022-03-02T13:26:13Z</time>
      </trkpt>
      <trkpt lat="44.73238" lon="5.05898">
        <ele>365.92</ele>
        <time>2022-03-02T13:26:14Z</time>
      </trkpt>
      <trkpt lat="44.73236" lon="5.05887">
        <ele>364.96</ele>
        <time>2022-03-02T13:26:23Z</time>
      </trkpt>
      <trkpt lat="44.73235" lon="5.05886">
        <ele>364.96</ele>
        <time>2022-03-02T13:26:24Z</time>
      </trkpt>
      <trkpt lat="44.73233" lon="5.05885">
        <ele>364.96</ele>
        <time>2022-03-02T13:26:25Z</time>
      </trkpt>
      <trkpt lat="44.73232" lon="5.05885">
        <ele>364.48</ele>
        <time>2022-03-02T13:26:26Z</time>
      </trkpt>
      <trkpt lat="44.73232" lon="5.05884">
        <ele>364</ele>
        <time>2022-03-02T13:26:27Z</time>
      </trkpt>
      <trkpt lat="44.73227" lon="5.05862">
        <ele>362.55</ele>
        <time>2022-03-02T13:26:47Z</time>
      </trkpt>
      <trkpt lat="44.73223" lon="5.05854">
        <ele>362.07</ele>
        <time>2022-03-02T13:26:53Z</time>
      </trkpt>
      <trkpt lat="44.73215" lon="5.05832">
        <ele>361.11</ele>
        <time>2022-03-02T13:27:11Z</time>
      </trkpt>
      <trkpt lat="44.73206" lon="5.05795">
        <ele>360.63</ele>
        <time>2022-03-02T13:27:41Z</time>
      </trkpt>
      <trkpt lat="44.73205" lon="5.05773">
        <ele>360.63</ele>
        <time>2022-03-02T13:27:58Z</time>
      </trkpt>
      <trkpt lat="44.73202" lon="5.05759">
        <ele>360.63</ele>
        <time>2022-03-02T13:28:08Z</time>
      </trkpt>
      <trkpt lat="44.73198" lon="5.05737">
        <ele>361.11</ele>
        <time>2022-03-02T13:28:27Z</time>
      </trkpt>
      <trkpt lat="44.73187" lon="5.05707">
        <ele>363.52</ele>
        <time>2022-03-02T13:28:53Z</time>
      </trkpt>
      <trkpt lat="44.73174" lon="5.05684">
        <ele>365.92</ele>
        <time>2022-03-02T13:29:15Z</time>
      </trkpt>
      <trkpt lat="44.73173" lon="5.05677">
        <ele>365.92</ele>
        <time>2022-03-02T13:29:19Z</time>
      </trkpt>
      <trkpt lat="44.73165" lon="5.05654">
        <ele>365.44</ele>
        <time>2022-03-02T13:29:37Z</time>
      </trkpt>
      <trkpt lat="44.73155" lon="5.05625">
        <ele>363.04</ele>
        <time>2022-03-02T13:30:04Z</time>
      </trkpt>
      <trkpt lat="44.73148" lon="5.05604">
        <ele>360.63</ele>
        <time>2022-03-02T13:30:24Z</time>
      </trkpt>
      <trkpt lat="44.73139" lon="5.05585">
        <ele>357.27</ele>
        <time>2022-03-02T13:30:45Z</time>
      </trkpt>
      <trkpt lat="44.73132" lon="5.05563">
        <ele>354.38</ele>
        <time>2022-03-02T13:31:05Z</time>
      </trkpt>
      <trkpt lat="44.73127" lon="5.05544">
        <ele>351.02</ele>
        <time>2022-03-02T13:31:25Z</time>
      </trkpt>
      <trkpt lat="44.73121" lon="5.05522">
        <ele>348.13</ele>
        <time>2022-03-02T13:31:47Z</time>
      </trkpt>
      <trkpt lat="44.73115" lon="5.05512">
        <ele>347.17</ele>
        <time>2022-03-02T13:32:01Z</time>
      </trkpt>
      <trkpt lat="44.73107" lon="5.05496">
        <ele>344.29</ele>
        <time>2022-03-02T13:32:20Z</time>
      </trkpt>
      <trkpt lat="44.73104" lon="5.05489">
        <ele>343.33</ele>
        <time>2022-03-02T13:32:38Z</time>
      </trkpt>
      <trkpt lat="44.73097" lon="5.05475">
        <ele>339.96</ele>
        <time>2022-03-02T13:32:56Z</time>
      </trkpt>
      <trkpt lat="44.73091" lon="5.05458">
        <ele>337.08</ele>
        <time>2022-03-02T13:33:14Z</time>
      </trkpt>
      <trkpt lat="44.73087" lon="5.05441">
        <ele>334.2</ele>
        <time>2022-03-02T13:33:33Z</time>
      </trkpt>
      <trkpt lat="44.73082" lon="5.05427">
        <ele>331.31</ele>
        <time>2022-03-02T13:33:51Z</time>
      </trkpt>
      <trkpt lat="44.73075" lon="5.05408">
        <ele>328.43</ele>
        <time>2022-03-02T13:34:11Z</time>
      </trkpt>
      <trkpt lat="44.7307" lon="5.05395">
        <ele>326.02</ele>
        <time>2022-03-02T13:34:32Z</time>
      </trkpt>
      <trkpt lat="44.73064" lon="5.05379">
        <ele>323.62</ele>
        <time>2022-03-02T13:34:50Z</time>
      </trkpt>
      <trkpt lat="44.7306" lon="5.05362">
        <ele>321.22</ele>
        <time>2022-03-02T13:35:07Z</time>
      </trkpt>
      <trkpt lat="44.73055" lon="5.05343">
        <ele>319.3</ele>
        <time>2022-03-02T13:35:25Z</time>
      </trkpt>
      <trkpt lat="44.73054" lon="5.05338">
        <ele>317.85</ele>
        <time>2022-03-02T13:35:45Z</time>
      </trkpt>
      <trkpt lat="44.73055" lon="5.05338">
        <ele>317.85</ele>
        <time>2022-03-02T13:36:05Z</time>
      </trkpt>
      <trkpt lat="44.73056" lon="5.05334">
        <ele>317.85</ele>
        <time>2022-03-02T13:36:27Z</time>
      </trkpt>
      <trkpt lat="44.73054" lon="5.05328">
        <ele>317.85</ele>
        <time>2022-03-02T13:36:42Z</time>
      </trkpt>
      <trkpt lat="44.73055" lon="5.05328">
        <ele>317.85</ele>
        <time>2022-03-02T13:37:11Z</time>
      </trkpt>
      <trkpt lat="44.73055" lon="5.05326">
        <ele>317.85</ele>
        <time>2022-03-02T13:37:38Z</time>
      </trkpt>
      <trkpt lat="44.73061" lon="5.05307">
        <ele>316.41</ele>
        <time>2022-03-02T13:37:57Z</time>
      </trkpt>
      <trkpt lat="44.73063" lon="5.05303">
        <ele>316.41</ele>
        <time>2022-03-02T13:38:01Z</time>
      </trkpt>
      <trkpt lat="44.73063" lon="5.05301">
        <ele>315.93</ele>
        <time>2022-03-02T13:38:02Z</time>
      </trkpt>
      <trkpt lat="44.73064" lon="5.053">
        <ele>315.93</ele>
        <time>2022-03-02T13:38:03Z</time>
      </trkpt>
      <trkpt lat="44.73064" lon="5.05298">
        <ele>315.93</ele>
        <time>2022-03-02T13:38:04Z</time>
      </trkpt>
      <trkpt lat="44.73064" lon="5.05297">
        <ele>315.45</ele>
        <time>2022-03-02T13:38:05Z</time>
      </trkpt>
      <trkpt lat="44.73072" lon="5.05271">
        <ele>314.01</ele>
        <time>2022-03-02T13:38:25Z</time>
      </trkpt>
      <trkpt lat="44.73079" lon="5.05251">
        <ele>314.01</ele>
        <time>2022-03-02T13:38:41Z</time>
      </trkpt>
      <trkpt lat="44.7308" lon="5.0525">
        <ele>314.01</ele>
        <time>2022-03-02T13:38:42Z</time>
      </trkpt>
      <trkpt lat="44.73081" lon="5.05247">
        <ele>314.01</ele>
        <time>2022-03-02T13:38:44Z</time>
      </trkpt>
      <trkpt lat="44.73092" lon="5.05221">
        <ele>314.01</ele>
        <time>2022-03-02T13:39:05Z</time>
      </trkpt>
      <trkpt lat="44.73101" lon="5.05199">
        <ele>314.97</ele>
        <time>2022-03-02T13:39:25Z</time>
      </trkpt>
      <trkpt lat="44.73108" lon="5.05182">
        <ele>316.89</ele>
        <time>2022-03-02T13:39:41Z</time>
      </trkpt>
      <trkpt lat="44.73111" lon="5.05167">
        <ele>317.37</ele>
        <time>2022-03-02T13:39:53Z</time>
      </trkpt>
      <trkpt lat="44.73116" lon="5.0514">
        <ele>317.85</ele>
        <time>2022-03-02T13:40:12Z</time>
      </trkpt>
      <trkpt lat="44.73119" lon="5.05115">
        <ele>318.81</ele>
        <time>2022-03-02T13:40:31Z</time>
      </trkpt>
      <trkpt lat="44.73122" lon="5.05092">
        <ele>318.81</ele>
        <time>2022-03-02T13:40:49Z</time>
      </trkpt>
      <trkpt lat="44.7312" lon="5.05067">
        <ele>319.78</ele>
        <time>2022-03-02T13:41:07Z</time>
      </trkpt>
      <trkpt lat="44.7312" lon="5.05061">
        <ele>319.78</ele>
        <time>2022-03-02T13:41:12Z</time>
      </trkpt>
      <trkpt lat="44.7312" lon="5.05057">
        <ele>319.78</ele>
        <time>2022-03-02T13:41:14Z</time>
      </trkpt>
      <trkpt lat="44.7312" lon="5.05056">
        <ele>319.78</ele>
        <time>2022-03-02T13:41:15Z</time>
      </trkpt>
      <trkpt lat="44.73112" lon="5.05028">
        <ele>319.78</ele>
        <time>2022-03-02T13:41:36Z</time>
      </trkpt>
      <trkpt lat="44.73111" lon="5.05017">
        <ele>319.3</ele>
        <time>2022-03-02T13:41:47Z</time>
      </trkpt>
      <trkpt lat="44.73107" lon="5.05005">
        <ele>318.81</ele>
        <time>2022-03-02T13:41:57Z</time>
      </trkpt>
      <trkpt lat="44.73106" lon="5.05004">
        <ele>318.33</ele>
        <time>2022-03-02T13:41:58Z</time>
      </trkpt>
      <trkpt lat="44.73105" lon="5.04982">
        <ele>315.93</ele>
        <time>2022-03-02T13:42:15Z</time>
      </trkpt>
      <trkpt lat="44.73108" lon="5.04977">
        <ele>315.45</ele>
        <time>2022-03-02T13:42:28Z</time>
      </trkpt>
      <trkpt lat="44.73115" lon="5.04961">
        <ele>313.53</ele>
        <time>2022-03-02T13:42:46Z</time>
      </trkpt>
      <trkpt lat="44.73118" lon="5.04957">
        <ele>312.57</ele>
        <time>2022-03-02T13:42:51Z</time>
      </trkpt>
      <trkpt lat="44.73128" lon="5.04946">
        <ele>310.16</ele>
        <time>2022-03-02T13:43:07Z</time>
      </trkpt>
      <trkpt lat="44.73136" lon="5.04937">
        <ele>308.24</ele>
        <time>2022-03-02T13:43:26Z</time>
      </trkpt>
      <trkpt lat="44.73139" lon="5.04931">
        <ele>307.28</ele>
        <time>2022-03-02T13:43:32Z</time>
      </trkpt>
      <trkpt lat="44.73137" lon="5.04921">
        <ele>306.32</ele>
        <time>2022-03-02T13:43:39Z</time>
      </trkpt>
      <trkpt lat="44.73136" lon="5.04917">
        <ele>305.84</ele>
        <time>2022-03-02T13:43:42Z</time>
      </trkpt>
      <trkpt lat="44.73136" lon="5.04914">
        <ele>305.36</ele>
        <time>2022-03-02T13:43:44Z</time>
      </trkpt>
      <trkpt lat="44.73137" lon="5.04913">
        <ele>305.36</ele>
        <time>2022-03-02T13:43:45Z</time>
      </trkpt>
      <trkpt lat="44.73141" lon="5.04889">
        <ele>303.91</ele>
        <time>2022-03-02T13:44:02Z</time>
      </trkpt>
      <trkpt lat="44.73142" lon="5.04865">
        <ele>303.43</ele>
        <time>2022-03-02T13:44:19Z</time>
      </trkpt>
      <trkpt lat="44.73129" lon="5.04845">
        <ele>303.43</ele>
        <time>2022-03-02T13:44:39Z</time>
      </trkpt>
      <trkpt lat="44.73126" lon="5.04843">
        <ele>303.91</ele>
        <time>2022-03-02T13:44:42Z</time>
      </trkpt>
      <trkpt lat="44.73125" lon="5.04842">
        <ele>303.91</ele>
        <time>2022-03-02T13:44:43Z</time>
      </trkpt>
      <trkpt lat="44.73119" lon="5.04828">
        <ele>304.88</ele>
        <time>2022-03-02T13:44:59Z</time>
      </trkpt>
      <trkpt lat="44.73124" lon="5.04806">
        <ele>306.32</ele>
        <time>2022-03-02T13:45:18Z</time>
      </trkpt>
      <trkpt lat="44.73124" lon="5.04805">
        <ele>306.32</ele>
        <time>2022-03-02T13:45:19Z</time>
      </trkpt>
      <trkpt lat="44.73127" lon="5.04787">
        <ele>306.8</ele>
        <time>2022-03-02T13:45:31Z</time>
      </trkpt>
      <trkpt lat="44.73135" lon="5.0478">
        <ele>306.8</ele>
        <time>2022-03-02T13:45:45Z</time>
      </trkpt>
      <trkpt lat="44.73144" lon="5.04774">
        <ele>304.88</ele>
        <time>2022-03-02T13:46:01Z</time>
      </trkpt>
      <trkpt lat="44.73144" lon="5.04749">
        <ele>302.95</ele>
        <time>2022-03-02T13:46:19Z</time>
      </trkpt>
      <trkpt lat="44.73146" lon="5.04726">
        <ele>301.03</ele>
        <time>2022-03-02T13:46:35Z</time>
      </trkpt>
      <trkpt lat="44.73144" lon="5.04708">
        <ele>299.11</ele>
        <time>2022-03-02T13:46:52Z</time>
      </trkpt>
      <trkpt lat="44.73145" lon="5.04702">
        <ele>298.15</ele>
        <time>2022-03-02T13:46:56Z</time>
      </trkpt>
      <trkpt lat="44.73144" lon="5.04687">
        <ele>296.22</ele>
        <time>2022-03-02T13:47:13Z</time>
      </trkpt>
      <trkpt lat="44.73144" lon="5.04684">
        <ele>296.22</ele>
        <time>2022-03-02T13:47:15Z</time>
      </trkpt>
      <trkpt lat="44.73139" lon="5.04664">
        <ele>293.82</ele>
        <time>2022-03-02T13:47:34Z</time>
      </trkpt>
      <trkpt lat="44.73124" lon="5.04639">
        <ele>291.42</ele>
        <time>2022-03-02T13:47:58Z</time>
      </trkpt>
      <trkpt lat="44.73117" lon="5.04629">
        <ele>291.42</ele>
        <time>2022-03-02T13:48:05Z</time>
      </trkpt>
      <trkpt lat="44.73104" lon="5.04605">
        <ele>290.94</ele>
        <time>2022-03-02T13:48:22Z</time>
      </trkpt>
      <trkpt lat="44.73095" lon="5.04594">
        <ele>289.49</ele>
        <time>2022-03-02T13:48:36Z</time>
      </trkpt>
      <trkpt lat="44.73095" lon="5.04593">
        <ele>289.49</ele>
        <time>2022-03-02T13:48:37Z</time>
      </trkpt>
      <trkpt lat="44.73084" lon="5.04574">
        <ele>286.61</ele>
        <time>2022-03-02T13:48:55Z</time>
      </trkpt>
      <trkpt lat="44.73081" lon="5.04563">
        <ele>285.17</ele>
        <time>2022-03-02T13:49:06Z</time>
      </trkpt>
      <trkpt lat="44.7308" lon="5.04562">
        <ele>285.17</ele>
        <time>2022-03-02T13:49:07Z</time>
      </trkpt>
      <trkpt lat="44.7308" lon="5.04561">
        <ele>285.17</ele>
        <time>2022-03-02T13:49:08Z</time>
      </trkpt>
      <trkpt lat="44.73073" lon="5.0454">
        <ele>282.28</ele>
        <time>2022-03-02T13:49:26Z</time>
      </trkpt>
      <trkpt lat="44.73065" lon="5.04525">
        <ele>278.92</ele>
        <time>2022-03-02T13:49:41Z</time>
      </trkpt>
      <trkpt lat="44.73057" lon="5.04515">
        <ele>276.04</ele>
        <time>2022-03-02T13:49:53Z</time>
      </trkpt>
      <trkpt lat="44.73047" lon="5.04499">
        <ele>273.15</ele>
        <time>2022-03-02T13:50:07Z</time>
      </trkpt>
      <trkpt lat="44.73033" lon="5.04482">
        <ele>269.79</ele>
        <time>2022-03-02T13:50:27Z</time>
      </trkpt>
      <trkpt lat="44.73021" lon="5.04467">
        <ele>266.9</ele>
        <time>2022-03-02T13:50:45Z</time>
      </trkpt>
      <trkpt lat="44.73009" lon="5.04448">
        <ele>264.5</ele>
        <time>2022-03-02T13:51:02Z</time>
      </trkpt>
      <trkpt lat="44.72996" lon="5.0443">
        <ele>263.06</ele>
        <time>2022-03-02T13:51:19Z</time>
      </trkpt>
      <trkpt lat="44.72972" lon="5.04404">
        <ele>261.14</ele>
        <time>2022-03-02T13:51:45Z</time>
      </trkpt>
      <trkpt lat="44.72959" lon="5.04376">
        <ele>260.65</ele>
        <time>2022-03-02T13:52:05Z</time>
      </trkpt>
      <trkpt lat="44.72957" lon="5.04352">
        <ele>260.17</ele>
        <time>2022-03-02T13:52:23Z</time>
      </trkpt>
      <trkpt lat="44.72955" lon="5.04349">
        <ele>260.17</ele>
        <time>2022-03-02T13:52:26Z</time>
      </trkpt>
      <trkpt lat="44.72954" lon="5.04346">
        <ele>260.17</ele>
        <time>2022-03-02T13:52:28Z</time>
      </trkpt>
      <trkpt lat="44.72953" lon="5.04344">
        <ele>260.17</ele>
        <time>2022-03-02T13:52:30Z</time>
      </trkpt>
      <trkpt lat="44.7295" lon="5.04342">
        <ele>260.17</ele>
        <time>2022-03-02T13:52:33Z</time>
      </trkpt>
      <trkpt lat="44.72933" lon="5.04331">
        <ele>260.17</ele>
        <time>2022-03-02T13:52:52Z</time>
      </trkpt>
      <trkpt lat="44.72912" lon="5.04321">
        <ele>258.73</ele>
        <time>2022-03-02T13:53:12Z</time>
      </trkpt>
      <trkpt lat="44.72902" lon="5.04317">
        <ele>258.73</ele>
        <time>2022-03-02T13:53:28Z</time>
      </trkpt>
      <trkpt lat="44.72899" lon="5.04314">
        <ele>258.25</ele>
        <time>2022-03-02T13:53:51Z</time>
      </trkpt>
      <trkpt lat="44.72898" lon="5.04314">
        <ele>258.25</ele>
        <time>2022-03-02T13:53:52Z</time>
      </trkpt>
      <trkpt lat="44.72897" lon="5.04313">
        <ele>258.25</ele>
        <time>2022-03-02T13:53:53Z</time>
      </trkpt>
      <trkpt lat="44.72896" lon="5.04312">
        <ele>258.25</ele>
        <time>2022-03-02T13:53:54Z</time>
      </trkpt>
      <trkpt lat="44.72876" lon="5.04303">
        <ele>256.81</ele>
        <time>2022-03-02T13:54:12Z</time>
      </trkpt>
      <trkpt lat="44.72875" lon="5.04302">
        <ele>256.81</ele>
        <time>2022-03-02T13:54:13Z</time>
      </trkpt>
      <trkpt lat="44.72874" lon="5.04301">
        <ele>256.81</ele>
        <time>2022-03-02T13:54:14Z</time>
      </trkpt>
      <trkpt lat="44.72847" lon="5.04288">
        <ele>256.33</ele>
        <time>2022-03-02T13:54:37Z</time>
      </trkpt>
      <trkpt lat="44.72823" lon="5.04276">
        <ele>255.85</ele>
        <time>2022-03-02T13:54:58Z</time>
      </trkpt>
      <trkpt lat="44.72805" lon="5.04266">
        <ele>255.85</ele>
        <time>2022-03-02T13:55:15Z</time>
      </trkpt>
      <trkpt lat="44.72804" lon="5.04265">
        <ele>255.85</ele>
        <time>2022-03-02T13:55:16Z</time>
      </trkpt>
      <trkpt lat="44.72803" lon="5.04265">
        <ele>255.85</ele>
        <time>2022-03-02T13:55:17Z</time>
      </trkpt>
      <trkpt lat="44.72802" lon="5.04264">
        <ele>255.85</ele>
        <time>2022-03-02T13:55:18Z</time>
      </trkpt>
      <trkpt lat="44.72801" lon="5.04263">
        <ele>255.85</ele>
        <time>2022-03-02T13:55:19Z</time>
      </trkpt>
      <trkpt lat="44.72777" lon="5.04248">
        <ele>255.37</ele>
        <time>2022-03-02T13:55:43Z</time>
      </trkpt>
      <trkpt lat="44.72755" lon="5.04231">
        <ele>255.37</ele>
        <time>2022-03-02T13:56:05Z</time>
      </trkpt>
      <trkpt lat="44.72734" lon="5.04207">
        <ele>254.89</ele>
        <time>2022-03-02T13:56:29Z</time>
      </trkpt>
      <trkpt lat="44.72723" lon="5.04189">
        <ele>253.93</ele>
        <time>2022-03-02T13:56:46Z</time>
      </trkpt>
      <trkpt lat="44.72722" lon="5.04186">
        <ele>253.93</ele>
        <time>2022-03-02T13:56:49Z</time>
      </trkpt>
      <trkpt lat="44.72721" lon="5.04185">
        <ele>253.93</ele>
        <time>2022-03-02T13:56:50Z</time>
      </trkpt>
      <trkpt lat="44.72709" lon="5.04158">
        <ele>250.56</ele>
        <time>2022-03-02T13:57:10Z</time>
      </trkpt>
      <trkpt lat="44.72695" lon="5.0413">
        <ele>247.68</ele>
        <time>2022-03-02T13:57:33Z</time>
      </trkpt>
      <trkpt lat="44.72688" lon="5.04119">
        <ele>245.75</ele>
        <time>2022-03-02T13:57:43Z</time>
      </trkpt>
      <trkpt lat="44.72687" lon="5.04117">
        <ele>245.75</ele>
        <time>2022-03-02T13:57:44Z</time>
      </trkpt>
      <trkpt lat="44.72675" lon="5.041">
        <ele>242.39</ele>
        <time>2022-03-02T13:58:01Z</time>
      </trkpt>
      <trkpt lat="44.72664" lon="5.04084">
        <ele>240.47</ele>
        <time>2022-03-02T13:58:18Z</time>
      </trkpt>
      <trkpt lat="44.72663" lon="5.04082">
        <ele>240.47</ele>
        <time>2022-03-02T13:58:19Z</time>
      </trkpt>
      <trkpt lat="44.72654" lon="5.04066">
        <ele>238.54</ele>
        <time>2022-03-02T13:58:35Z</time>
      </trkpt>
      <trkpt lat="44.72646" lon="5.04042">
        <ele>237.58</ele>
        <time>2022-03-02T13:58:54Z</time>
      </trkpt>
      <trkpt lat="44.72646" lon="5.04034">
        <ele>237.1</ele>
        <time>2022-03-02T13:59:12Z</time>
      </trkpt>
      <trkpt lat="44.72647" lon="5.04034">
        <ele>237.1</ele>
        <time>2022-03-02T13:59:41Z</time>
      </trkpt>
      <trkpt lat="44.72648" lon="5.04034">
        <ele>237.1</ele>
        <time>2022-03-02T14:00:06Z</time>
      </trkpt>
      <trkpt lat="44.72647" lon="5.04032">
        <ele>237.1</ele>
        <time>2022-03-02T14:00:34Z</time>
      </trkpt>
      <trkpt lat="44.72648" lon="5.04031">
        <ele>237.1</ele>
        <time>2022-03-02T14:01:03Z</time>
      </trkpt>
      <trkpt lat="44.72656" lon="5.0402">
        <ele>236.14</ele>
        <time>2022-03-02T14:01:24Z</time>
      </trkpt>
      <trkpt lat="44.72657" lon="5.0402">
        <ele>236.14</ele>
        <time>2022-03-02T14:01:25Z</time>
      </trkpt>
      <trkpt lat="44.72658" lon="5.04019">
        <ele>236.14</ele>
        <time>2022-03-02T14:01:26Z</time>
      </trkpt>
      <trkpt lat="44.72659" lon="5.04018">
        <ele>236.14</ele>
        <time>2022-03-02T14:01:27Z</time>
      </trkpt>
      <trkpt lat="44.7266" lon="5.04018">
        <ele>236.14</ele>
        <time>2022-03-02T14:01:28Z</time>
      </trkpt>
      <trkpt lat="44.72673" lon="5.0401">
        <ele>234.7</ele>
        <time>2022-03-02T14:01:44Z</time>
      </trkpt>
      <trkpt lat="44.72692" lon="5.04">
        <ele>231.81</ele>
        <time>2022-03-02T14:02:06Z</time>
      </trkpt>
      <trkpt lat="44.72707" lon="5.03992">
        <ele>229.89</ele>
        <time>2022-03-02T14:02:24Z</time>
      </trkpt>
      <trkpt lat="44.72725" lon="5.03984">
        <ele>226.53</ele>
        <time>2022-03-02T14:02:44Z</time>
      </trkpt>
      <trkpt lat="44.7274" lon="5.03974">
        <ele>224.61</ele>
        <time>2022-03-02T14:03:01Z</time>
      </trkpt>
      <trkpt lat="44.72744" lon="5.03969">
        <ele>224.61</ele>
        <time>2022-03-02T14:03:08Z</time>
      </trkpt>
      <trkpt lat="44.72746" lon="5.03966">
        <ele>224.61</ele>
        <time>2022-03-02T14:03:11Z</time>
      </trkpt>
      <trkpt lat="44.72746" lon="5.03965">
        <ele>224.61</ele>
        <time>2022-03-02T14:03:12Z</time>
      </trkpt>
      <trkpt lat="44.72747" lon="5.03963">
        <ele>224.61</ele>
        <time>2022-03-02T14:03:13Z</time>
      </trkpt>
      <trkpt lat="44.72748" lon="5.03962">
        <ele>224.61</ele>
        <time>2022-03-02T14:03:14Z</time>
      </trkpt>
      <trkpt lat="44.72757" lon="5.03944">
        <ele>226.05</ele>
        <time>2022-03-02T14:03:30Z</time>
      </trkpt>
      <trkpt lat="44.72768" lon="5.03921">
        <ele>227.49</ele>
        <time>2022-03-02T14:03:48Z</time>
      </trkpt>
      <trkpt lat="44.72781" lon="5.03899">
        <ele>229.41</ele>
        <time>2022-03-02T14:04:09Z</time>
      </trkpt>
      <trkpt lat="44.72784" lon="5.03888">
        <ele>230.85</ele>
        <time>2022-03-02T14:04:18Z</time>
      </trkpt>
      <trkpt lat="44.72788" lon="5.03867">
        <ele>232.78</ele>
        <time>2022-03-02T14:04:35Z</time>
      </trkpt>
      <trkpt lat="44.72794" lon="5.03851">
        <ele>235.18</ele>
        <time>2022-03-02T14:04:53Z</time>
      </trkpt>
      <trkpt lat="44.72804" lon="5.03831">
        <ele>236.62</ele>
        <time>2022-03-02T14:05:12Z</time>
      </trkpt>
      <trkpt lat="44.72818" lon="5.0381">
        <ele>239.02</ele>
        <time>2022-03-02T14:05:35Z</time>
      </trkpt>
      <trkpt lat="44.72829" lon="5.03793">
        <ele>241.43</ele>
        <time>2022-03-02T14:05:53Z</time>
      </trkpt>
      <trkpt lat="44.72841" lon="5.03774">
        <ele>243.83</ele>
        <time>2022-03-02T14:06:12Z</time>
      </trkpt>
      <trkpt lat="44.72842" lon="5.03771">
        <ele>244.31</ele>
        <time>2022-03-02T14:06:17Z</time>
      </trkpt>
      <trkpt lat="44.72843" lon="5.03769">
        <ele>244.31</ele>
        <time>2022-03-02T14:06:18Z</time>
      </trkpt>
      <trkpt lat="44.72844" lon="5.03768">
        <ele>244.31</ele>
        <time>2022-03-02T14:06:19Z</time>
      </trkpt>
      <trkpt lat="44.72849" lon="5.0374">
        <ele>245.75</ele>
        <time>2022-03-02T14:06:38Z</time>
      </trkpt>
      <trkpt lat="44.72836" lon="5.03727">
        <ele>245.27</ele>
        <time>2022-03-02T14:06:55Z</time>
      </trkpt>
      <trkpt lat="44.72817" lon="5.03718">
        <ele>243.35</ele>
        <time>2022-03-02T14:07:17Z</time>
      </trkpt>
      <trkpt lat="44.72807" lon="5.03715">
        <ele>240.47</ele>
        <time>2022-03-02T14:07:34Z</time>
      </trkpt>
      <trkpt lat="44.72803" lon="5.03716">
        <ele>240.95</ele>
        <time>2022-03-02T14:07:47Z</time>
      </trkpt>
      <trkpt lat="44.72803" lon="5.03716">
        <ele>240.47</ele>
        <time>2022-03-02T14:08:14Z</time>
      </trkpt>
      <trkpt lat="44.72804" lon="5.03716">
        <ele>240.47</ele>
        <time>2022-03-02T14:08:40Z</time>
      </trkpt>
      <trkpt lat="44.72805" lon="5.03716">
        <ele>239.51</ele>
        <time>2022-03-02T14:08:48Z</time>
      </trkpt>
    </trkseg>
  </trk>
</gpx>